Observation data for Claude 12 Southwest on 05/15/2018      Previous  Date  Next       Current Mesonet Observations  Soil Data  Daily Summary Page  Observations in Plain Language
KCL1 150500Z 13009KT 19/10 A2995 RMK A01 T01910102  RH  056%=      5-min Rain = 0
KCL1 150501Z 13008KT 19/10 A2995 RMK A01 T01910103  RH  057%=      5-min Rain = 0
KCL1 150502Z 13010KT 19/10 A2995 RMK A01 T01900103  RH  057%=      5-min Rain = 0
KCL1 150503Z 13010KT 19/10 A2995 RMK A01 T01900102  RH  057%=      5-min Rain = 0
KCL1 150504Z 13010KT 19/10 A2995 RMK A01 T01890102  RH  057%=      5-min Rain = 0
KCL1 150505Z 12008KT 19/10 A2995 RMK A01 T01900103  RH  057%=      5-min Rain = 0
KCL1 150506Z 12009KT 19/10 A2995 RMK A01 T01890103  RH  057%=      5-min Rain = 0
KCL1 150507Z 12009KT 19/10 A2995 RMK A01 T01880103  RH  058%=      5-min Rain = 0
KCL1 150508Z 12008KT 19/10 A2995 RMK A01 T01880103  RH  058%=      5-min Rain = 0
KCL1 150509Z 12011KT 19/10 A2995 RMK A01 T01870102  RH  058%=      5-min Rain = 0
KCL1 150510Z 12009KT 19/10 A2995 RMK A01 T01860102  RH  058%=      5-min Rain = 0
KCL1 150511Z 12008KT 19/10 A2995 RMK A01 T01860102  RH  058%=      5-min Rain = 0
KCL1 150512Z 12008KT 19/10 A2995 RMK A01 T01850102  RH  058%=      5-min Rain = 0
KCL1 150513Z 12008KT 19/10 A2995 RMK A01 T01850102  RH  058%=      5-min Rain = 0
KCL1 150514Z 12009KT 19/10 A2995 RMK A01 T01850102  RH  059%=      5-min Rain = 0
KCL1 150515Z 12008KT 18/10 A2995 RMK A01 T01840102  RH  059%=      5-min Rain = 0
KCL1 150516Z 12009KT 18/10 A2995 RMK A01 T01830102  RH  059%=      5-min Rain = 0
KCL1 150517Z 12009KT 18/10 A2995 RMK A01 T01830102  RH  059%=      5-min Rain = 0
KCL1 150518Z 12009KT 18/10 A2995 RMK A01 T01830102  RH  059%=      5-min Rain = 0
KCL1 150519Z 12009KT 18/10 A2995 RMK A01 T01830102  RH  059%=      5-min Rain = 0
KCL1 150520Z 13008KT 18/10 A2995 RMK A01 T01830102  RH  059%=      5-min Rain = 0
KCL1 150521Z 13007KT 18/10 A2995 RMK A01 T01820102  RH  059%=      5-min Rain = 0
KCL1 150522Z 13006KT 18/10 A2995 RMK A01 T01830102  RH  059%=      5-min Rain = 0
KCL1 150523Z 13007KT 18/10 A2995 RMK A01 T01820102  RH  059%=      5-min Rain = 0
KCL1 150524Z 12007KT 18/10 A2995 RMK A01 T01820102  RH  060%=      5-min Rain = 0
KCL1 150525Z 13006KT 18/10 A2995 RMK A01 T01810102  RH  060%=      5-min Rain = 0
KCL1 150526Z 13006KT 18/10 A2995 RMK A01 T01810102  RH  060%=      5-min Rain = 0
KCL1 150527Z 15006KT 18/10 A2995 RMK A01 T01800102  RH  060%=      5-min Rain = 0
KCL1 150528Z 15006KT 18/10 A2996 RMK A01 T01800102  RH  060%=      5-min Rain = 0
KCL1 150529Z 15006KT 18/10 A2996 RMK A01 T01800101  RH  060%=      5-min Rain = 0
KCL1 150530Z 14005KT 18/10 A2996 RMK A01 T01800101  RH  060%=      5-min Rain = 0
KCL1 150531Z 13005KT 18/10 A2995 RMK A01 T01800100  RH  060%=      5-min Rain = 0
KCL1 150532Z 14005KT 18/10 A2996 RMK A01 T01800100  RH  060%=      5-min Rain = 0
KCL1 150533Z 14005KT 18/10 A2996 RMK A01 T01800100  RH  059%=      5-min Rain = 0
KCL1 150534Z 14005KT 18/10 A2996 RMK A01 T01800100  RH  060%=      5-min Rain = 0
KCL1 150535Z 14006KT 18/10 A2996 RMK A01 T01790100  RH  060%=      5-min Rain = 0
KCL1 150536Z 13006KT 18/10 A2996 RMK A01 T01790100  RH  060%=      5-min Rain = 0
KCL1 150537Z 14005KT 18/10 A2995 RMK A01 T01790100  RH  060%=      5-min Rain = 0
KCL1 150538Z 14006KT 18/10 A2995 RMK A01 T01790100  RH  060%=      5-min Rain = 0
KCL1 150539Z 14006KT 18/10 A2995 RMK A01 T01790100  RH  060%=      5-min Rain = 0
KCL1 150540Z 15006KT 18/10 A2996 RMK A01 T01790100  RH  060%=      5-min Rain = 0
KCL1 150541Z 15007KT 18/10 A2996 RMK A01 T01800100  RH  059%=      5-min Rain = 0
KCL1 150542Z 15006KT 18/10 A2995 RMK A01 T01810100  RH  059%=      5-min Rain = 0
KCL1 150543Z 15006KT 18/10 A2995 RMK A01 T01820100  RH  059%=      5-min Rain = 0
KCL1 150544Z 14008KT 18/10 A2995 RMK A01 T01830100  RH  058%=      5-min Rain = 0
KCL1 150545Z 14008KT 18/10 A2995 RMK A01 T01830100  RH  058%=      5-min Rain = 0
KCL1 150546Z 13007KT 18/10 A2995 RMK A01 T01830100  RH  058%=      5-min Rain = 0
KCL1 150547Z 13007KT 18/10 A2995 RMK A01 T01820100  RH  058%=      5-min Rain = 0
KCL1 150548Z 13007KT 18/10 A2995 RMK A01 T01820100  RH  059%=      5-min Rain = 0
KCL1 150549Z 14007KT 18/10 A2995 RMK A01 T01810100  RH  059%=      5-min Rain = 0
KCL1 150550Z 14008KT 18/10 A2994 RMK A01 T01800099  RH  059%=      5-min Rain = 0
KCL1 150551Z 14007KT 18/10 A2994 RMK A01 T01800099  RH  059%=      5-min Rain = 0
KCL1 150552Z 14008KT 18/10 A2994 RMK A01 T01800099  RH  059%=      5-min Rain = 0
KCL1 150553Z 13008KT 18/10 A2994 RMK A01 T01800099  RH  059%=      5-min Rain = 0
KCL1 150554Z 13008KT 18/10 A2994 RMK A01 T01790100  RH  060%=      5-min Rain = 0
KCL1 150555Z 13009KT 18/10 A2994 RMK A01 T01790100  RH  060%=      5-min Rain = 0
KCL1 150556Z 13009KT 18/10 A2994 RMK A01 T01790100  RH  060%=      5-min Rain = 0
KCL1 150557Z 13010KT 18/10 A2994 RMK A01 T01790100  RH  060%=      5-min Rain = 0
KCL1 150558Z 13009KT 18/10 A2994 RMK A01 T01790100  RH  060%=      5-min Rain = 0
KCL1 150559Z 13008KT 18/10 A2994 RMK A01 T01790100  RH  060%=      5-min Rain = 0
KCL1 150600Z 13008KT 18/10 A2994 RMK A01 T01790100  RH  060%=      5-min Rain = 0
KCL1 150601Z 14009KT 18/10 A2994 RMK A01 T01790101  RH  060%=      5-min Rain = 0
KCL1 150602Z 14009KT 18/10 A2994 RMK A01 T01790101  RH  060%=      5-min Rain = 0
KCL1 150603Z 14008KT 18/10 A2994 RMK A01 T01790101  RH  060%=      5-min Rain = 0
KCL1 150604Z 15007KT 18/10 A2994 RMK A01 T01790101  RH  060%=      5-min Rain = 0
KCL1 150605Z 14008KT 18/10 A2994 RMK A01 T01790101  RH  060%=      5-min Rain = 0
KCL1 150606Z 14008KT 18/10 A2994 RMK A01 T01780101  RH  061%=      5-min Rain = 0
KCL1 150607Z 14008KT 18/10 A2994 RMK A01 T01780101  RH  061%=      5-min Rain = 0
KCL1 150608Z 14010KT 18/10 A2994 RMK A01 T01780101  RH  061%=      5-min Rain = 0
KCL1 150609Z 13009KT 18/10 A2993 RMK A01 T01780101  RH  061%=      5-min Rain = 0
KCL1 150610Z 13010KT 18/10 A2993 RMK A01 T01780101  RH  061%=      5-min Rain = 0
KCL1 150611Z 12009KT 18/10 A2993 RMK A01 T01790101  RH  061%=      5-min Rain = 0
KCL1 150612Z 12009KT 18/10 A2993 RMK A01 T01790101  RH  061%=      5-min Rain = 0
KCL1 150613Z 13010KT 18/10 A2993 RMK A01 T01790102  RH  061%=      5-min Rain = 0
KCL1 150614Z 13008KT 18/10 A2993 RMK A01 T01780102  RH  061%=      5-min Rain = 0
KCL1 150615Z 14007KT 18/10 A2994 RMK A01 T01770102  RH  061%=      5-min Rain = 0
KCL1 150616Z 15007KT 18/10 A2994 RMK A01 T01760102  RH  062%=      5-min Rain = 0
KCL1 150617Z 16006KT 18/10 A2994 RMK A01 T01760102  RH  062%=      5-min Rain = 0
KCL1 150618Z 15007KT 18/10 A2994 RMK A01 T01770102  RH  062%=      5-min Rain = 0
KCL1 150619Z 15006KT 18/10 A2994 RMK A01 T01770102  RH  061%=      5-min Rain = 0
KCL1 150620Z 16007KT 18/10 A2994 RMK A01 T01770102  RH  062%=      5-min Rain = 0
KCL1 150621Z 15007KT 18/10 A2994 RMK A01 T01770102  RH  062%=      5-min Rain = 0
KCL1 150622Z 14008KT 18/10 A2994 RMK A01 T01770102  RH  062%=      5-min Rain = 0
KCL1 150623Z 15007KT 18/10 A2994 RMK A01 T01770103  RH  062%=      5-min Rain = 0
KCL1 150624Z 15008KT 18/10 A2994 RMK A01 T01770103  RH  062%=      5-min Rain = 0
KCL1 150625Z 15006KT 18/10 A2994 RMK A01 T01780104  RH  062%=      5-min Rain = 0
KCL1 150626Z 15007KT 18/10 A2994 RMK A01 T01800104  RH  061%=      5-min Rain = 0
KCL1 150627Z 15008KT 18/10 A2994 RMK A01 T01800104  RH  061%=      5-min Rain = 0
KCL1 150628Z 15007KT 18/10 A2995 RMK A01 T01800104  RH  061%=      5-min Rain = 0
KCL1 150629Z 16008KT 18/11 A2995 RMK A01 T01810105  RH  061%=      5-min Rain = 0
KCL1 150630Z 15008KT 18/11 A2995 RMK A01 T01810105  RH  061%=      5-min Rain = 0
KCL1 150631Z 15008KT 18/11 A2995 RMK A01 T01820105  RH  061%=      5-min Rain = 0
KCL1 150632Z 16010KT 18/11 A2995 RMK A01 T01820105  RH  061%=      5-min Rain = 0
KCL1 150633Z 16007KT 18/11 A2995 RMK A01 T01830106  RH  061%=      5-min Rain = 0
KCL1 150634Z 15009KT 18/11 A2995 RMK A01 T01840106  RH  061%=      5-min Rain = 0
KCL1 150635Z 15009KT 18/11 A2995 RMK A01 T01840106  RH  061%=      5-min Rain = 0
KCL1 150636Z 15008KT 18/11 A2995 RMK A01 T01830106  RH  061%=      5-min Rain = 0
KCL1 150637Z 14007KT 18/11 A2995 RMK A01 T01830106  RH  061%=      5-min Rain = 0
KCL1 150638Z 16006KT 18/11 A2995 RMK A01 T01820106  RH  061%=      5-min Rain = 0
KCL1 150639Z 16008KT 18/11 A2995 RMK A01 T01810106  RH  061%=      5-min Rain = 0
KCL1 150640Z 15007KT 18/11 A2995 RMK A01 T01810106  RH  062%=      5-min Rain = 0
KCL1 150641Z 15007KT 18/11 A2995 RMK A01 T01810106  RH  062%=      5-min Rain = 0
KCL1 150642Z 16006KT 18/11 A2995 RMK A01 T01810106  RH  062%=      5-min Rain = 0
KCL1 150643Z 15007KT 18/11 A2995 RMK A01 T01810106  RH  061%=      5-min Rain = 0
KCL1 150644Z 16006KT 18/11 A2995 RMK A01 T01800106  RH  062%=      5-min Rain = 0
KCL1 150645Z 15007KT 18/11 A2995 RMK A01 T01800106  RH  062%=      5-min Rain = 0
KCL1 150646Z 16007KT 18/11 A2995 RMK A01 T01800106  RH  062%=      5-min Rain = 0
KCL1 150647Z 16007KT 18/11 A2995 RMK A01 T01790106  RH  062%=      5-min Rain = 0
KCL1 150648Z 16008KT 18/11 A2995 RMK A01 T01790107  RH  063%=      5-min Rain = 0
KCL1 150649Z 16005KT 18/11 A2995 RMK A01 T01790107  RH  063%=      5-min Rain = 0
KCL1 150650Z 14006KT 18/11 A2995 RMK A01 T01790107  RH  063%=      5-min Rain = 0
KCL1 150651Z 14006KT 18/11 A2995 RMK A01 T01790107  RH  063%=      5-min Rain = 0
KCL1 150652Z 13005KT 18/11 A2995 RMK A01 T01780107  RH  063%=      5-min Rain = 0
KCL1 150653Z 13006KT 18/11 A2995 RMK A01 T01770107  RH  063%=      5-min Rain = 0
KCL1 150654Z 13006KT 18/11 A2995 RMK A01 T01770107  RH  063%=      5-min Rain = 0
KCL1 150655Z 13007KT 18/11 A2995 RMK A01 T01760107  RH  064%=      5-min Rain = 0
KCL1 150656Z 13008KT 18/11 A2995 RMK A01 T01760107  RH  064%=      5-min Rain = 0
KCL1 150657Z 12007KT 18/11 A2995 RMK A01 T01760107  RH  064%=      5-min Rain = 0
KCL1 150658Z 12007KT 18/11 A2995 RMK A01 T01760107  RH  064%=      5-min Rain = 0
KCL1 150659Z 11007KT 18/11 A2995 RMK A01 T01750106  RH  064%=      5-min Rain = 0
KCL1 150700Z 11006KT 17/11 A2996 RMK A01 T01740105  RH  064%=      5-min Rain = 0
KCL1 150701Z 11006KT 17/11 A2996 RMK A01 T01720105  RH  064%=      5-min Rain = 0
KCL1 150702Z 10006KT 17/10 A2996 RMK A01 T01710104  RH  065%=      5-min Rain = 0
KCL1 150703Z 08006KT 17/10 A2996 RMK A01 T01680103  RH  065%=      5-min Rain = 0
KCL1 150704Z 07004KT 17/10 A2996 RMK A01 T01660102  RH  066%=      5-min Rain = 0
KCL1 150705Z 08004KT 16/10 A2996 RMK A01 T01630101  RH  067%=      5-min Rain = 0
KCL1 150706Z 08004KT 16/10 A2996 RMK A01 T01600100  RH  068%=      5-min Rain = 0
KCL1 150707Z 08004KT 16/10 A2996 RMK A01 T01580100  RH  068%=      5-min Rain = 0
KCL1 150708Z 09003KT 16/10 A2996 RMK A01 T01560100  RH  069%=      5-min Rain = 0
KCL1 150709Z 10002KT 16/10 A2996 RMK A01 T01550099  RH  069%=      5-min Rain = 0
KCL1 150710Z 10003KT 15/10 A2996 RMK A01 T01540100  RH  070%=      5-min Rain = 0
KCL1 150711Z 11003KT 15/10 A2996 RMK A01 T01530100  RH  070%=      5-min Rain = 0
KCL1 150712Z 11003KT 15/10 A2997 RMK A01 T01520099  RH  071%=      5-min Rain = 0
KCL1 150713Z 11003KT 15/10 A2997 RMK A01 T01520099  RH  071%=      5-min Rain = 0
KCL1 150714Z 10002KT 15/10 A2997 RMK A01 T01510099  RH  071%=      5-min Rain = 0
KCL1 150715Z 11003KT 15/10 A2997 RMK A01 T01500099  RH  072%=      5-min Rain = 0
KCL1 150716Z 11002KT 15/10 A2997 RMK A01 T01490099  RH  072%=      5-min Rain = 0
KCL1 150717Z 12002KT 15/10 A2997 RMK A01 T01490099  RH  072%=      5-min Rain = 0
KCL1 150718Z 11001KT 15/10 A2997 RMK A01 T01490100  RH  072%=      5-min Rain = 0
KCL1 150719Z 11001KT 15/10 A2997 RMK A01 T01490100  RH  072%=      5-min Rain = 0
KCL1 150720Z 12000KT 15/10 A2998 RMK A01 T01480099  RH  072%=      5-min Rain = 0
KCL1 150721Z 24000KT 15/10 A2998 RMK A01 T01480099  RH  073%=      5-min Rain = 0
KCL1 150722Z 24001KT 15/10 A2998 RMK A01 T01480099  RH  073%=      5-min Rain = 0
KCL1 150723Z 27000KT 15/10 A2998 RMK A01 T01480098  RH  072%=      5-min Rain = 0
KCL1 150724Z 30000KT 15/10 A2998 RMK A01 T01480099  RH  072%=      5-min Rain = 0
KCL1 150725Z 02001KT 15/10 A2998 RMK A01 T01490100  RH  072%=      5-min Rain = 0
KCL1 150726Z 02001KT 15/10 A2998 RMK A01 T01490100  RH  072%=      5-min Rain = 0
KCL1 150727Z 01001KT 15/10 A2998 RMK A01 T01490100  RH  073%=      5-min Rain = 0
KCL1 150728Z 02001KT 15/10 A2998 RMK A01 T01490102  RH  073%=      5-min Rain = 0
KCL1 150729Z 04003KT 15/10 A2998 RMK A01 T01500102  RH  073%=      5-min Rain = 0
KCL1 150730Z 05003KT 15/10 A2998 RMK A01 T01510101  RH  072%=      5-min Rain = 0
KCL1 150731Z 05004KT 15/10 A2998 RMK A01 T01510103  RH  073%=      5-min Rain = 0
KCL1 150732Z 06005KT 15/10 A2998 RMK A01 T01520104  RH  073%=      5-min Rain = 0
KCL1 150733Z 06006KT 15/10 A2998 RMK A01 T01520103  RH  073%=      5-min Rain = 0
KCL1 150734Z 07006KT 15/10 A2998 RMK A01 T01510103  RH  073%=      5-min Rain = 0
KCL1 150735Z 07007KT 15/10 A2998 RMK A01 T01500103  RH  073%=      5-min Rain = 0
KCL1 150736Z 07007KT 15/10 A2998 RMK A01 T01500103  RH  074%=      5-min Rain = 0
KCL1 150737Z 07007KT 15/10 A2998 RMK A01 T01490103  RH  074%=      5-min Rain = 0
KCL1 150738Z 08008KT 15/10 A2997 RMK A01 T01490104  RH  075%=      5-min Rain = 0
KCL1 150739Z 08008KT 15/11 A2997 RMK A01 T01490106  RH  075%=      5-min Rain = 0
KCL1 150740Z 08008KT 15/11 A2997 RMK A01 T01500106  RH  075%=      5-min Rain = 0
KCL1 150741Z 09008KT 15/11 A2997 RMK A01 T01490106  RH  075%=      5-min Rain = 0
KCL1 150742Z 09008KT 15/11 A2997 RMK A01 T01500106  RH  075%=      5-min Rain = 0
KCL1 150743Z 09009KT 15/11 A2997 RMK A01 T01490105  RH  075%=      5-min Rain = 0
KCL1 150744Z 09009KT 15/11 A2997 RMK A01 T01490106  RH  076%=      5-min Rain = 0
KCL1 150745Z 09008KT 15/11 A2997 RMK A01 T01490107  RH  076%=      5-min Rain = 0
KCL1 150746Z 09007KT 15/11 A2997 RMK A01 T01490108  RH  076%=      5-min Rain = 0
KCL1 150747Z 10006KT 15/11 A2997 RMK A01 T01480107  RH  076%=      5-min Rain = 0
KCL1 150748Z 09006KT 15/11 A2997 RMK A01 T01490108  RH  076%=      5-min Rain = 0
KCL1 150749Z 09005KT 15/11 A2997 RMK A01 T01490108  RH  076%=      5-min Rain = 0
KCL1 150750Z 09005KT 15/11 A2997 RMK A01 T01480108  RH  076%=      5-min Rain = 0
KCL1 150751Z 09005KT 15/11 A2997 RMK A01 T01480107  RH  077%=      5-min Rain = 0
KCL1 150752Z 09006KT 15/11 A2997 RMK A01 T01480108  RH  077%=      5-min Rain = 0
KCL1 150753Z 09006KT 15/11 A2997 RMK A01 T01480107  RH  077%=      5-min Rain = 0
KCL1 150754Z 09005KT 15/11 A2997 RMK A01 T01470107  RH  077%=      5-min Rain = 0
KCL1 150755Z 09005KT 15/11 A2997 RMK A01 T01470108  RH  077%=      5-min Rain = 0
KCL1 150756Z 10005KT 15/11 A2997 RMK A01 T01470108  RH  077%=      5-min Rain = 0
KCL1 150757Z 11004KT 15/11 A2997 RMK A01 T01470108  RH  078%=      5-min Rain = 0
KCL1 150758Z 13004KT 15/11 A2997 RMK A01 T01470108  RH  078%=      5-min Rain = 0
KCL1 150759Z 13004KT 15/11 A2997 RMK A01 T01460108  RH  078%=      5-min Rain = 0
KCL1 150800Z 13004KT 15/11 A2997 RMK A01 T01460108  RH  078%=      5-min Rain = 0
KCL1 150801Z 13004KT 15/11 A2997 RMK A01 T01450108  RH  078%=      5-min Rain = 0
KCL1 150802Z 13004KT 15/11 A2997 RMK A01 T01450108  RH  079%=      5-min Rain = 0
KCL1 150803Z 13004KT 14/11 A2997 RMK A01 T01440108  RH  079%=      5-min Rain = 0
KCL1 150804Z 13005KT 14/11 A2997 RMK A01 T01440108  RH  079%=      5-min Rain = 0
KCL1 150805Z 13006KT 14/11 A2997 RMK A01 T01440109  RH  079%=      5-min Rain = 0
KCL1 150806Z 13007KT 14/11 A2997 RMK A01 T01440109  RH  079%=      5-min Rain = 0
KCL1 150807Z 13007KT 15/11 A2997 RMK A01 T01450110  RH  079%=      5-min Rain = 0
KCL1 150808Z 13006KT 15/11 A2997 RMK A01 T01460111  RH  079%=      5-min Rain = 0
KCL1 150809Z 13006KT 15/11 A2997 RMK A01 T01470111  RH  079%=      5-min Rain = 0
KCL1 150810Z 13005KT 15/11 A2997 RMK A01 T01470111  RH  079%=      5-min Rain = 0
KCL1 150811Z 12006KT 15/11 A2997 RMK A01 T01480111  RH  079%=      5-min Rain = 0
KCL1 150812Z 12007KT 15/11 A2997 RMK A01 T01480111  RH  079%=      5-min Rain = 0
KCL1 150813Z 11006KT 15/11 A2997 RMK A01 T01480111  RH  079%=      5-min Rain = 0
KCL1 150814Z 11006KT 15/11 A2997 RMK A01 T01470111  RH  079%=      5-min Rain = 0
KCL1 150815Z 11005KT 15/11 A2997 RMK A01 T01460110  RH  079%=      5-min Rain = 0
KCL1 150816Z 11005KT 15/11 A2997 RMK A01 T01450110  RH  079%=      5-min Rain = 0
KCL1 150817Z 12005KT 14/11 A2997 RMK A01 T01440110  RH  080%=      5-min Rain = 0
KCL1 150818Z 11004KT 14/11 A2997 RMK A01 T01440111  RH  080%=      5-min Rain = 0
KCL1 150819Z 11004KT 14/11 A2997 RMK A01 T01440112  RH  081%=      5-min Rain = 0
KCL1 150820Z 11003KT 15/11 A2997 RMK A01 T01450112  RH  081%=      5-min Rain = 0
KCL1 150821Z 11004KT 15/11 A2997 RMK A01 T01450112  RH  080%=      5-min Rain = 0
KCL1 150822Z 11004KT 15/11 A2997 RMK A01 T01450111  RH  080%=      5-min Rain = 0
KCL1 150823Z 11003KT 15/11 A2997 RMK A01 T01450111  RH  080%=      5-min Rain = 0
KCL1 150824Z 12004KT 15/11 A2997 RMK A01 T01450111  RH  080%=      5-min Rain = 0
KCL1 150825Z 12004KT 14/11 A2997 RMK A01 T01440111  RH  081%=      5-min Rain = 0
KCL1 150826Z 12004KT 14/11 A2997 RMK A01 T01440111  RH  081%=      5-min Rain = 0
KCL1 150827Z 12004KT 14/11 A2997 RMK A01 T01430111  RH  081%=      5-min Rain = 0
KCL1 150828Z 12004KT 14/11 A2997 RMK A01 T01430111  RH  081%=      5-min Rain = 0
KCL1 150829Z 11004KT 14/11 A2997 RMK A01 T01420110  RH  081%=      5-min Rain = 0
KCL1 150830Z 12005KT 14/11 A2996 RMK A01 T01420110  RH  081%=      5-min Rain = 0
KCL1 150831Z 12005KT 14/11 A2996 RMK A01 T01410110  RH  081%=      5-min Rain = 0
KCL1 150832Z 12004KT 14/11 A2996 RMK A01 T01410111  RH  082%=      5-min Rain = 0
KCL1 150833Z 12004KT 14/11 A2996 RMK A01 T01410111  RH  082%=      5-min Rain = 0
KCL1 150834Z 10003KT 14/11 A2996 RMK A01 T01410111  RH  082%=      5-min Rain = 0
KCL1 150835Z 09003KT 14/11 A2996 RMK A01 T01410111  RH  082%=      5-min Rain = 0
KCL1 150836Z 09003KT 14/11 A2996 RMK A01 T01410110  RH  082%=      5-min Rain = 0
KCL1 150837Z 09003KT 14/11 A2996 RMK A01 T01400110  RH  082%=      5-min Rain = 0
KCL1 150838Z 09003KT 14/11 A2996 RMK A01 T01400110  RH  083%=      5-min Rain = 0
KCL1 150839Z 10003KT 14/11 A2996 RMK A01 T01390111  RH  083%=      5-min Rain = 0
KCL1 150840Z 10003KT 14/11 A2996 RMK A01 T01400111  RH  083%=      5-min Rain = 0
KCL1 150841Z 11003KT 14/11 A2996 RMK A01 T01400112  RH  083%=      5-min Rain = 0
KCL1 150842Z 11003KT 14/11 A2996 RMK A01 T01410113  RH  083%=      5-min Rain = 0
KCL1 150843Z 11003KT 14/11 A2996 RMK A01 T01410113  RH  083%=      5-min Rain = 0
KCL1 150844Z 12004KT 14/11 A2996 RMK A01 T01410112  RH  083%=      5-min Rain = 0
KCL1 150845Z 13004KT 14/11 A2996 RMK A01 T01410112  RH  082%=      5-min Rain = 0
KCL1 150846Z 14004KT 14/11 A2996 RMK A01 T01410112  RH  083%=      5-min Rain = 0
KCL1 150847Z 14004KT 14/11 A2996 RMK A01 T01410112  RH  083%=      5-min Rain = 0
KCL1 150848Z 15003KT 14/11 A2996 RMK A01 T01410112  RH  082%=      5-min Rain = 0
KCL1 150849Z 16004KT 14/11 A2996 RMK A01 T01410112  RH  082%=      5-min Rain = 0
KCL1 150850Z 17004KT 14/11 A2996 RMK A01 T01420112  RH  082%=      5-min Rain = 0
KCL1 150851Z 16005KT 14/11 A2996 RMK A01 T01430113  RH  082%=      5-min Rain = 0
KCL1 150852Z 16005KT 15/11 A2996 RMK A01 T01450114  RH  082%=      5-min Rain = 0
KCL1 150853Z 17006KT 15/12 A2996 RMK A01 T01480116  RH  081%=      5-min Rain = 0
KCL1 150854Z 17004KT 15/12 A2996 RMK A01 T01520117  RH  080%=      5-min Rain = 0
KCL1 150855Z 16005KT 15/12 A2996 RMK A01 T01540117  RH  079%=      5-min Rain = 0
KCL1 150856Z 17005KT 16/12 A2995 RMK A01 T01560118  RH  078%=      5-min Rain = 0
KCL1 150857Z 18006KT 16/12 A2995 RMK A01 T01580118  RH  077%=      5-min Rain = 0
KCL1 150858Z 17005KT 16/12 A2995 RMK A01 T01590118  RH  076%=      5-min Rain = 0
KCL1 150859Z 17006KT 16/12 A2995 RMK A01 T01600117  RH  076%=      5-min Rain = 0
KCL1 150900Z 18006KT 16/12 A2995 RMK A01 T01600117  RH  075%=      5-min Rain = 0
KCL1 150901Z 18006KT 16/12 A2995 RMK A01 T01610117  RH  075%=      5-min Rain = 0
KCL1 150902Z 17006KT 16/12 A2995 RMK A01 T01620117  RH  075%=      5-min Rain = 0
KCL1 150903Z 17006KT 16/12 A2995 RMK A01 T01620117  RH  075%=      5-min Rain = 0
KCL1 150904Z 17006KT 16/12 A2995 RMK A01 T01630117  RH  074%=      5-min Rain = 0
KCL1 150905Z 17007KT 16/12 A2995 RMK A01 T01630117  RH  074%=      5-min Rain = 0
KCL1 150906Z 16007KT 16/12 A2995 RMK A01 T01630117  RH  074%=      5-min Rain = 0
KCL1 150907Z 16007KT 16/12 A2995 RMK A01 T01630117  RH  074%=      5-min Rain = 0
KCL1 150908Z 16007KT 16/12 A2995 RMK A01 T01630117  RH  074%=      5-min Rain = 0
KCL1 150909Z 16008KT 16/12 A2995 RMK A01 T01630117  RH  074%=      5-min Rain = 0
KCL1 150910Z 16007KT 16/12 A2995 RMK A01 T01630117  RH  074%=      5-min Rain = 0
KCL1 150911Z 16007KT 16/12 A2994 RMK A01 T01630117  RH  074%=      5-min Rain = 0
KCL1 150912Z 16008KT 16/12 A2994 RMK A01 T01640117  RH  074%=      5-min Rain = 0
KCL1 150913Z 16008KT 16/12 A2994 RMK A01 T01640117  RH  074%=      5-min Rain = 0
KCL1 150914Z 16008KT 16/12 A2994 RMK A01 T01640117  RH  073%=      5-min Rain = 0
KCL1 150915Z 16007KT 16/12 A2994 RMK A01 T01640116  RH  073%=      5-min Rain = 0
KCL1 150916Z 16009KT 17/12 A2994 RMK A01 T01650116  RH  073%=      5-min Rain = 0
KCL1 150917Z 16009KT 17/12 A2994 RMK A01 T01650116  RH  073%=      5-min Rain = 0
KCL1 150918Z 17007KT 17/12 A2994 RMK A01 T01650116  RH  073%=      5-min Rain = 0
KCL1 150919Z 17010KT 17/12 A2994 RMK A01 T01650116  RH  073%=      5-min Rain = 0
KCL1 150920Z 17008KT 17/12 A2994 RMK A01 T01650117  RH  073%=      5-min Rain = 0
KCL1 150921Z 17009KT 17/12 A2994 RMK A01 T01650116  RH  073%=      5-min Rain = 0
KCL1 150922Z 17008KT 17/12 A2995 RMK A01 T01650116  RH  073%=      5-min Rain = 0
KCL1 150923Z 17007KT 17/12 A2994 RMK A01 T01650116  RH  073%=      5-min Rain = 0
KCL1 150924Z 18009KT 17/12 A2994 RMK A01 T01650117  RH  073%=      5-min Rain = 0
KCL1 150925Z 18007KT 17/12 A2994 RMK A01 T01650117  RH  073%=      5-min Rain = 0
KCL1 150926Z 17008KT 17/12 A2995 RMK A01 T01650117  RH  073%=      5-min Rain = 0
KCL1 150927Z 17008KT 17/12 A2995 RMK A01 T01650117  RH  073%=      5-min Rain = 0
KCL1 150928Z 16009KT 17/12 A2995 RMK A01 T01650117  RH  073%=      5-min Rain = 0
KCL1 150929Z 16009KT 17/12 A2995 RMK A01 T01650117  RH  073%=      5-min Rain = 0
KCL1 150930Z 17007KT 16/12 A2995 RMK A01 T01640117  RH  073%=      5-min Rain = 0
KCL1 150931Z 18005KT 16/12 A2995 RMK A01 T01640116  RH  073%=      5-min Rain = 0
KCL1 150932Z 18005KT 16/12 A2995 RMK A01 T01630116  RH  074%=      5-min Rain = 0
KCL1 150933Z 17005KT 16/12 A2995 RMK A01 T01620115  RH  074%=      5-min Rain = 0
KCL1 150934Z 18006KT 16/12 A2995 RMK A01 T01610115  RH  074%=      5-min Rain = 0
KCL1 150935Z 18005KT 16/12 A2995 RMK A01 T01600115  RH  074%=      5-min Rain = 0
KCL1 150936Z 18005KT 16/12 A2995 RMK A01 T01600115  RH  075%=      5-min Rain = 0
KCL1 150937Z 19005KT 16/12 A2995 RMK A01 T01600115  RH  075%=      5-min Rain = 0
KCL1 150938Z 19004KT 16/12 A2995 RMK A01 T01590115  RH  075%=      5-min Rain = 0
KCL1 150939Z 20005KT 16/12 A2995 RMK A01 T01590115  RH  075%=      5-min Rain = 0
KCL1 150940Z 21004KT 16/12 A2995 RMK A01 T01590115  RH  075%=      5-min Rain = 0
KCL1 150941Z 24002KT 16/12 A2995 RMK A01 T01590115  RH  075%=      5-min Rain = 0
KCL1 150942Z 23002KT 16/12 A2995 RMK A01 T01590115  RH  075%=      5-min Rain = 0
KCL1 150943Z 24003KT 16/12 A2995 RMK A01 T01590115  RH  075%=      5-min Rain = 0
KCL1 150944Z 25003KT 16/11 A2995 RMK A01 T01590114  RH  075%=      5-min Rain = 0
KCL1 150945Z 22003KT 16/11 A2995 RMK A01 T01580114  RH  075%=      5-min Rain = 0
KCL1 150946Z 23003KT 16/12 A2995 RMK A01 T01580115  RH  075%=      5-min Rain = 0
KCL1 150947Z 21003KT 16/12 A2995 RMK A01 T01580115  RH  075%=      5-min Rain = 0
KCL1 150948Z 19004KT 16/12 A2995 RMK A01 T01580115  RH  076%=      5-min Rain = 0
KCL1 150949Z 22003KT 16/12 A2995 RMK A01 T01580116  RH  076%=      5-min Rain = 0
KCL1 150950Z 20005KT 16/12 A2995 RMK A01 T01580115  RH  076%=      5-min Rain = 0
KCL1 150956Z 19006KT 16/12 A2995 RMK A01 T01610120  RH  076%=      5-min Rain = 0
KCL1 150957Z 19006KT 16/12 A2995 RMK A01 T01620122  RH  077%=      5-min Rain = 0
KCL1 150958Z 18007KT 16/12 A2995 RMK A01 T01620124  RH  078%=      5-min Rain = 0
KCL1 150959Z 19008KT 16/13 A2994 RMK A01 T01640130  RH  080%=      5-min Rain = 0
KCL1 151000Z 20005KT 17/13 A2995 RMK A01 T01680131  RH  079%=      5-min Rain = 0
KCL1 151001Z 21004KT 17/13 A2995 RMK A01 T01680128  RH  077%=      5-min Rain = 0
KCL1 151002Z 22004KT 17/13 A2995 RMK A01 T01690128  RH  077%=      5-min Rain = 0
KCL1 151003Z 18007KT 17/13 A2994 RMK A01 T01690126  RH  076%=      5-min Rain = 0
KCL1 151004Z 17009KT 17/13 A2994 RMK A01 T01680130  RH  078%=      5-min Rain = 0
KCL1 151005Z 18008KT 17/13 A2994 RMK A01 T01680131  RH  079%=      5-min Rain = 0
KCL1 151006Z 19006KT 17/13 A2994 RMK A01 T01690131  RH  078%=      5-min Rain = 0
KCL1 151007Z 19008G13KT 17/13 A2994 RMK A01 T01690131  RH  078%=      5-min Rain = 0
KCL1 151008Z 23006KT 17/13 A2994 RMK A01 T01690130  RH  078%=      5-min Rain = 0
KCL1 151009Z 20004KT 17/13 A2994 RMK A01 T01690128  RH  077%=      5-min Rain = 0
KCL1 151010Z 21005KT 17/13 A2994 RMK A01 T01680127  RH  076%=      5-min Rain = 0
KCL1 151011Z 20006KT 17/13 A2994 RMK A01 T01670127  RH  077%=      5-min Rain = 0
KCL1 151012Z 21006KT 17/13 A2994 RMK A01 T01670128  RH  078%=      5-min Rain = 0
KCL1 151013Z 19009KT 17/13 A2994 RMK A01 T01680130  RH  078%=      5-min Rain = 0
KCL1 151014Z 21007KT 17/13 A2994 RMK A01 T01690130  RH  078%=      5-min Rain = 0
KCL1 151015Z 21007KT 17/13 A2994 RMK A01 T01690129  RH  078%=      5-min Rain = 0
KCL1 151016Z 20007KT 17/13 A2994 RMK A01 T01690131  RH  078%=      5-min Rain = 0
KCL1 151017Z 21006KT 17/13 A2994 RMK A01 T01690132  RH  078%=      5-min Rain = 0
KCL1 151018Z 20006KT 17/13 A2994 RMK A01 T01700132  RH  078%=      5-min Rain = 0
KCL1 151019Z 20008KT 17/13 A2994 RMK A01 T01700133  RH  079%=      5-min Rain = 0
KCL1 151020Z 20007KT 17/14 A2994 RMK A01 T01710135  RH  080%=      5-min Rain = 0
KCL1 151021Z 20007KT 17/14 A2994 RMK A01 T01720135  RH  079%=      5-min Rain = 0
KCL1 151022Z 20007KT 17/13 A2994 RMK A01 T01720134  RH  078%=      5-min Rain = 0
KCL1 151023Z 21008KT 17/14 A2994 RMK A01 T01720135  RH  079%=      5-min Rain = 0
KCL1 151024Z 20008KT 17/14 A2994 RMK A01 T01720135  RH  079%=      5-min Rain = 0
KCL1 151025Z 20007KT 17/14 A2994 RMK A01 T01720135  RH  079%=      5-min Rain = 0
KCL1 151026Z 20006KT 17/14 A2994 RMK A01 T01730135  RH  079%=      5-min Rain = 0
KCL1 151027Z 21006KT 17/14 A2994 RMK A01 T01720136  RH  079%=      5-min Rain = 0
KCL1 151028Z 20005KT 17/14 A2994 RMK A01 T01720136  RH  079%=      5-min Rain = 0
KCL1 151029Z 20006KT 17/14 A2994 RMK A01 T01730136  RH  079%=      5-min Rain = 0
KCL1 151030Z 19008KT 17/14 A2994 RMK A01 T01720136  RH  079%=      5-min Rain = 0
KCL1 151031Z 19007KT 17/14 A2994 RMK A01 T01720137  RH  080%=      5-min Rain = 0
KCL1 151032Z 21007KT 17/14 A2994 RMK A01 T01720136  RH  079%=      5-min Rain = 0
KCL1 151033Z 20009KT 17/14 A2994 RMK A01 T01720137  RH  079%=      5-min Rain = 0
KCL1 151034Z 20009KT 17/14 A2994 RMK A01 T01720137  RH  080%=      5-min Rain = 0
KCL1 151035Z 20008KT 17/14 A2994 RMK A01 T01730138  RH  080%=      5-min Rain = 0
KCL1 151036Z 19008KT 17/14 A2994 RMK A01 T01740138  RH  079%=      5-min Rain = 0
KCL1 151037Z 19008KT 17/14 A2994 RMK A01 T01740139  RH  080%=      5-min Rain = 0
KCL1 151038Z 20009KT 18/14 A2994 RMK A01 T01750139  RH  080%=      5-min Rain = 0
KCL1 151039Z 20008KT 18/14 A2994 RMK A01 T01750139  RH  080%=      5-min Rain = 0
KCL1 151040Z 20008KT 18/14 A2994 RMK A01 T01750140  RH  080%=      5-min Rain = 0
KCL1 151041Z 19008KT 18/14 A2994 RMK A01 T01750139  RH  080%=      5-min Rain = 0
KCL1 151042Z 20009KT 18/14 A2994 RMK A01 T01750140  RH  080%=      5-min Rain = 0
KCL1 151043Z 20007KT 18/14 A2994 RMK A01 T01750141  RH  080%=      5-min Rain = 0
KCL1 151044Z 20010KT 18/14 A2994 RMK A01 T01760141  RH  080%=      5-min Rain = 0
KCL1 151045Z 20008KT 18/14 A2994 RMK A01 T01760142  RH  081%=      5-min Rain = 0
KCL1 151046Z 20008KT 18/14 A2994 RMK A01 T01770143  RH  081%=      5-min Rain = 0
KCL1 151047Z 20006KT 18/14 A2994 RMK A01 T01770143  RH  080%=      5-min Rain = 0
KCL1 151048Z 20006KT 18/14 A2994 RMK A01 T01770143  RH  081%=      5-min Rain = 0
KCL1 151049Z 20007KT 18/14 A2994 RMK A01 T01770143  RH  081%=      5-min Rain = 0
KCL1 151050Z 20006KT 18/14 A2994 RMK A01 T01770144  RH  081%=      5-min Rain = 0
KCL1 151051Z 21005KT 18/15 A2995 RMK A01 T01780145  RH  081%=      5-min Rain = 0
KCL1 151052Z 20005KT 18/15 A2995 RMK A01 T01780145  RH  081%=      5-min Rain = 0
KCL1 151053Z 19005KT 18/15 A2995 RMK A01 T01780146  RH  081%=      5-min Rain = 0
KCL1 151054Z 21005KT 18/15 A2995 RMK A01 T01790146  RH  081%=      5-min Rain = 0
KCL1 151055Z 14002KT 18/15 A2995 RMK A01 T01790146  RH  081%=      5-min Rain = 0
KCL1 151056Z 18000KT 18/15 A2995 RMK A01 T01790146  RH  081%=      5-min Rain = 0
KCL1 151057Z 10001KT 18/15 A2996 RMK A01 T01790146  RH  081%=      5-min Rain = 0
KCL1 151058Z 07003KT 18/15 A2996 RMK A01 T01780146  RH  082%=      5-min Rain = 0
KCL1 151059Z 05005KT 18/15 A2996 RMK A01 T01780146  RH  082%=      5-min Rain = 0
KCL1 151100Z 04006KT 18/15 A2996 RMK A01 T01770145  RH  082%=      5-min Rain = 0
KCL1 151101Z 02006KT 18/14 A2996 RMK A01 T01750143  RH  081%=      5-min Rain = 0
KCL1 151102Z 03008KT 17/13 A2997 RMK A01 T01700129  RH  077%=      5-min Rain = 0
KCL1 151103Z 03008KT 16/12 A2997 RMK A01 T01620124  RH  078%=      5-min Rain = 0
KCL1 151104Z 03008KT 16/12 A2997 RMK A01 T01570122  RH  079%=      5-min Rain = 0
KCL1 151105Z 03008KT 15/12 A2997 RMK A01 T01530121  RH  081%=      5-min Rain = 0
KCL1 151106Z 03008KT 15/12 A2997 RMK A01 T01510120  RH  082%=      5-min Rain = 0
KCL1 151107Z 03006KT 15/12 A2997 RMK A01 T01500121  RH  083%=      5-min Rain = 0
KCL1 151108Z 05004KT 15/12 A2997 RMK A01 T01490121  RH  083%=      5-min Rain = 0
KCL1 151109Z 04003KT 15/12 A2997 RMK A01 T01490122  RH  084%=      5-min Rain = 0
KCL1 151110Z 16003KT 15/12 A2997 RMK A01 T01480123  RH  085%=      5-min Rain = 0
KCL1 151111Z 12002KT 15/12 A2997 RMK A01 T01480123  RH  085%=      5-min Rain = 0
KCL1 151112Z 12002KT 15/12 A2997 RMK A01 T01490124  RH  085%=      5-min Rain = 0
KCL1 151113Z 11002KT 15/12 A2997 RMK A01 T01490124  RH  085%=      5-min Rain = 0
KCL1 151114Z 09003KT 15/13 A2997 RMK A01 T01500125  RH  085%=      5-min Rain = 0
KCL1 151115Z 07004KT 15/13 A2998 RMK A01 T01510126  RH  085%=      5-min Rain = 0
KCL1 151116Z 05005KT 15/13 A2998 RMK A01 T01510126  RH  085%=      5-min Rain = 0
KCL1 151117Z 03006KT 15/13 A2998 RMK A01 T01520127  RH  085%=      5-min Rain = 0
KCL1 151118Z 03007KT 15/13 A2999 RMK A01 T01530129  RH  086%=      5-min Rain = 0
KCL1 151119Z 01007KT 16/13 A2999 RMK A01 T01560133  RH  086%=      5-min Rain = 0
KCL1 151120Z 01011KT 16/13 A2999 RMK A01 T01580134  RH  085%=      5-min Rain = 0
KCL1 151121Z 01008KT 16/13 A2999 RMK A01 T01590133  RH  084%=      5-min Rain = 0
KCL1 151122Z 01009KT 16/13 A2999 RMK A01 T01590132  RH  084%=      5-min Rain = 0
KCL1 151123Z 01010KT 16/13 A2999 RMK A01 T01590134  RH  085%=      5-min Rain = 0
KCL1 151124Z 02009KT 16/14 A2999 RMK A01 T01610137  RH  086%=      5-min Rain = 0
KCL1 151125Z 02009KT 16/14 A2999 RMK A01 T01630139  RH  086%=      5-min Rain = 0
KCL1 151126Z 02010KT 17/14 A2999 RMK A01 T01650140  RH  086%=      5-min Rain = 0
KCL1 151127Z 03008KT 17/14 A2999 RMK A01 T01670142  RH  085%=      5-min Rain = 0
KCL1 151128Z 03006KT 17/14 A2999 RMK A01 T01690143  RH  085%=      5-min Rain = 0
KCL1 151129Z 03005KT 17/14 A2999 RMK A01 T01700143  RH  084%=      5-min Rain = 0
KCL1 151130Z 05003KT 17/14 A2999 RMK A01 T01710143  RH  084%=      5-min Rain = 0
KCL1 151131Z 10000KT 17/14 A2999 RMK A01 T01720143  RH  083%=      5-min Rain = 0
KCL1 151132Z 16001KT 17/14 A2999 RMK A01 T01720143  RH  083%=      5-min Rain = 0
KCL1 151133Z 16002KT 17/14 A2999 RMK A01 T01730144  RH  083%=      5-min Rain = 0
KCL1 151134Z 19004KT 17/15 A2999 RMK A01 T01720146  RH  085%=      5-min Rain = 0
KCL1 151135Z 13003KT 18/15 A2999 RMK A01 T01750150  RH  085%=      5-min Rain = 0
KCL1 151136Z 11003KT 18/15 A2999 RMK A01 T01770147  RH  083%=      5-min Rain = 0
KCL1 151137Z 07004KT 18/15 A30 RMK A01 T01770146  RH  082%=      5-min Rain = 0
KCL1 151138Z 04007KT 18/15 A30 RMK A01 T01770147  RH  082%=      5-min Rain = 0
KCL1 151139Z 03009KT 18/15 A30 RMK A01 T01780146  RH  082%=      5-min Rain = 0
KCL1 151140Z 03010KT 18/15 A30 RMK A01 T01770146  RH  082%=      5-min Rain = 0
KCL1 151141Z 02010KT 18/15 A3001 RMK A01 T01770145  RH  082%=      5-min Rain = 0
KCL1 151142Z 02010G15KT 18/15 A3001 RMK A01 T01760145  RH  082%=      5-min Rain = 0
KCL1 151143Z 01014KT 18/14 A3001 RMK A01 T01760142  RH  080%=      5-min Rain = 0
KCL1 151144Z 02012KT 17/14 A3001 RMK A01 T01740136  RH  079%=      5-min Rain = 0
KCL1 151145Z 02011KT 17/13 A3001 RMK A01 T01710134  RH  079%=      5-min Rain = 0
KCL1 151146Z 02009KT 17/13 A3001 RMK A01 T01690133  RH  079%=      5-min Rain = 0
KCL1 151147Z 02008KT 17/13 A3001 RMK A01 T01680133  RH  080%=      5-min Rain = 0
KCL1 151148Z 03005KT 17/13 A3001 RMK A01 T01680133  RH  080%=      5-min Rain = 0
KCL1 151149Z 05004KT 17/13 A30 RMK A01 T01670134  RH  081%=      5-min Rain = 0
KCL1 151150Z 11002KT 17/14 A30 RMK A01 T01680135  RH  081%=      5-min Rain = 0
KCL1 151151Z 16004KT 17/14 A30 RMK A01 T01680135  RH  081%=      5-min Rain = 0
KCL1 151152Z 17005KT 17/14 A2999 RMK A01 T01690136  RH  081%=      5-min Rain = 0
KCL1 151153Z 17005KT 17/14 A2999 RMK A01 T01690136  RH  081%=      5-min Rain = 0
KCL1 151154Z 20005KT 17/14 A2999 RMK A01 T01700137  RH  081%=      5-min Rain = 0
KCL1 151155Z 20005KT 17/14 A2999 RMK A01 T01710139  RH  081%=      5-min Rain = 0
KCL1 151156Z 21002KT 17/14 A30 RMK A01 T01720144  RH  084%=      5-min Rain = 0
KCL1 151157Z 02000KT 18/15 A30 RMK A01 T01750146  RH  083%=      5-min Rain = 0
KCL1 151158Z 03004KT 18/15 A3001 RMK A01 T01760146  RH  083%=      5-min Rain = 0
KCL1 151159Z 02009KT 18/14 A3002 RMK A01 T01770144  RH  081%=      5-min Rain = 0
KCL1 151200Z 02010KT 18/14 A3002 RMK A01 T01770142  RH  080%=      5-min Rain = 0
KCL1 151201Z 03010KT 18/14 A3002 RMK A01 T01760140  RH  079%=      5-min Rain = 0
KCL1 151202Z 03011KT 17/14 A3002 RMK A01 T01740138  RH  079%=      5-min Rain = 0
KCL1 151203Z 04010KT 17/14 A3002 RMK A01 T01720135  RH  079%=      5-min Rain = 0
KCL1 151204Z 05009KT 17/13 A3002 RMK A01 T01710134  RH  079%=      5-min Rain = 0
KCL1 151205Z 05009KT 17/13 A3002 RMK A01 T01700134  RH  079%=      5-min Rain = 0
KCL1 151206Z 06010KT 17/13 A3002 RMK A01 T01700133  RH  079%=      5-min Rain = 0
KCL1 151207Z 06010KT 17/13 A3002 RMK A01 T01700133  RH  079%=      5-min Rain = 0
KCL1 151208Z 06009KT 17/13 A3002 RMK A01 T01700133  RH  079%=      5-min Rain = 0
KCL1 151209Z 07007KT 17/13 A3002 RMK A01 T01700133  RH  079%=      5-min Rain = 0
KCL1 151210Z 08007KT 17/13 A3002 RMK A01 T01700134  RH  079%=      5-min Rain = 0
KCL1 151211Z 08004KT 17/14 A3002 RMK A01 T01710135  RH  079%=      5-min Rain = 0
KCL1 151212Z 07003KT 17/13 A3002 RMK A01 T01710134  RH  079%=      5-min Rain = 0
KCL1 151213Z 05001KT 17/14 A3002 RMK A01 T01710135  RH  079%=      5-min Rain = 0
KCL1 151214Z 35002KT 17/14 A3002 RMK A01 T01720136  RH  079%=      5-min Rain = 0
KCL1 151215Z 01002KT 17/14 A3002 RMK A01 T01720135  RH  079%=      5-min Rain = 0
KCL1 151216Z 01003KT 17/14 A3002 RMK A01 T01720136  RH  079%=      5-min Rain = 0
KCL1 151217Z 35003KT 17/14 A3002 RMK A01 T01730137  RH  079%=      5-min Rain = 0
KCL1 151218Z 01004KT 17/14 A3002 RMK A01 T01730136  RH  079%=      5-min Rain = 0
KCL1 151219Z 02004KT 17/14 A3002 RMK A01 T01730136  RH  079%=      5-min Rain = 0
KCL1 151220Z 03005KT 17/14 A3002 RMK A01 T01740136  RH  079%=      5-min Rain = 0
KCL1 151221Z 04006KT 17/14 A3002 RMK A01 T01740136  RH  079%=      5-min Rain = 0
KCL1 151222Z 05006KT 17/14 A3002 RMK A01 T01740137  RH  079%=      5-min Rain = 0
KCL1 151223Z 04006KT 17/14 A3002 RMK A01 T01740137  RH  079%=      5-min Rain = 0
KCL1 151224Z 05007KT 17/14 A3003 RMK A01 T01740137  RH  079%=      5-min Rain = 0
KCL1 151225Z 06007KT 17/14 A3003 RMK A01 T01740138  RH  079%=      5-min Rain = 0
KCL1 151226Z 06011KT 18/14 A3003 RMK A01 T01750135  RH  077%=      5-min Rain = 0
KCL1 151227Z 05008KT 17/13 A3003 RMK A01 T01730131  RH  076%=      5-min Rain = 0
KCL1 151228Z 05008KT 17/13 A3003 RMK A01 T01720130  RH  076%=      5-min Rain = 0
KCL1 151229Z 05009KT 17/13 A3003 RMK A01 T01710131  RH  077%=      5-min Rain = 0
KCL1 151230Z 05008KT 17/13 A3003 RMK A01 T01710130  RH  077%=      5-min Rain = 0
KCL1 151231Z 05007KT 17/13 A3003 RMK A01 T01710130  RH  077%=      5-min Rain = 0
KCL1 151232Z 06006KT 17/13 A3003 RMK A01 T01710131  RH  077%=      5-min Rain = 0
KCL1 151233Z 06006KT 17/13 A3003 RMK A01 T01710131  RH  078%=      5-min Rain = 0
KCL1 151234Z 09003KT 17/13 A3003 RMK A01 T01710133  RH  078%=      5-min Rain = 0
KCL1 151235Z 11004KT 17/13 A3003 RMK A01 T01720132  RH  077%=      5-min Rain = 0
KCL1 151236Z 11005KT 17/13 A3003 RMK A01 T01720134  RH  078%=      5-min Rain = 0
KCL1 151237Z 09004KT 17/14 A3003 RMK A01 T01730135  RH  078%=      5-min Rain = 0
KCL1 151238Z 07005KT 17/13 A3003 RMK A01 T01730134  RH  078%=      5-min Rain = 0
KCL1 151239Z 05007KT 17/13 A3004 RMK A01 T01730134  RH  078%=      5-min Rain = 0
KCL1 151240Z 04008KT 17/14 A3004 RMK A01 T01740135  RH  078%=      5-min Rain = 0
KCL1 151241Z 04010KT 17/14 A3004 RMK A01 T01740136  RH  078%=      5-min Rain = 0
KCL1 151242Z 05013KT 17/13 A3004 RMK A01 T01740133  RH  077%=      5-min Rain = 0
KCL1 151243Z 05012KT 17/13 A3004 RMK A01 T01740130  RH  076%=      5-min Rain = 0
KCL1 151244Z 05012KT 17/13 A3004 RMK A01 T01720129  RH  075%=      5-min Rain = 0
KCL1 151245Z 06010KT 17/13 A3004 RMK A01 T01720128  RH  075%=      5-min Rain = 0
KCL1 151246Z 06008KT 17/13 A3004 RMK A01 T01710128  RH  075%=      5-min Rain = 0
KCL1 151247Z 06007KT 17/13 A3004 RMK A01 T01720128  RH  075%=      5-min Rain = 0
KCL1 151248Z 07006KT 17/13 A3004 RMK A01 T01720128  RH  075%=      5-min Rain = 0
KCL1 151249Z 07005KT 17/13 A3004 RMK A01 T01720128  RH  076%=      5-min Rain = 0
KCL1 151250Z 08005KT 17/13 A3004 RMK A01 T01720128  RH  075%=      5-min Rain = 0
KCL1 151251Z 07007KT 17/13 A3004 RMK A01 T01720128  RH  075%=      5-min Rain = 0
KCL1 151252Z 07008KT 17/13 A3004 RMK A01 T01720129  RH  075%=      5-min Rain = 0
KCL1 151253Z 06007KT 17/13 A3004 RMK A01 T01730129  RH  075%=      5-min Rain = 0
KCL1 151254Z 05010KT 17/13 A3004 RMK A01 T01730129  RH  075%=      5-min Rain = 0
KCL1 151255Z 05012KT 17/13 A3004 RMK A01 T01730127  RH  074%=      5-min Rain = 0
KCL1 151256Z 05011KT 17/13 A3004 RMK A01 T01730126  RH  074%=      5-min Rain = 0
KCL1 151257Z 06013KT 17/13 A3004 RMK A01 T01720125  RH  074%=      5-min Rain = 0
KCL1 151258Z 06011KT 17/12 A3004 RMK A01 T01720124  RH  073%=      5-min Rain = 0
KCL1 151259Z 06009KT 17/12 A3004 RMK A01 T01710124  RH  074%=      5-min Rain = 0
KCL1 151300Z 06013KT 17/12 A3004 RMK A01 T01720124  RH  073%=      5-min Rain = 0
KCL1 151301Z 06010KT 17/12 A3005 RMK A01 T01720124  RH  073%=      5-min Rain = 0
KCL1 151302Z 05009KT 17/12 A3005 RMK A01 T01730124  RH  073%=      5-min Rain = 0
KCL1 151303Z 06010KT 17/12 A3005 RMK A01 T01730124  RH  073%=      5-min Rain = 0
KCL1 151304Z 06012KT 17/12 A3004 RMK A01 T01730123  RH  072%=      5-min Rain = 0
KCL1 151305Z 06012KT 17/12 A3004 RMK A01 T01730123  RH  072%=      5-min Rain = 0
KCL1 151306Z 07010KT 17/12 A3004 RMK A01 T01720122  RH  072%=      5-min Rain = 0
KCL1 151307Z 06011KT 17/12 A3005 RMK A01 T01720122  RH  072%=      5-min Rain = 0
KCL1 151308Z 06012KT 17/12 A3004 RMK A01 T01720122  RH  072%=      5-min Rain = 0
KCL1 151309Z 08011KT 17/12 A3004 RMK A01 T01720121  RH  072%=      5-min Rain = 0
KCL1 151310Z 08011KT 17/12 A3004 RMK A01 T01720122  RH  072%=      5-min Rain = 0
KCL1 151311Z 07012KT 17/12 A3004 RMK A01 T01720121  RH  072%=      5-min Rain = 0
KCL1 151312Z 06012KT 17/12 A3005 RMK A01 T01720121  RH  072%=      5-min Rain = 0
KCL1 151313Z 06013KT 17/12 A3005 RMK A01 T01720121  RH  072%=      5-min Rain = 0
KCL1 151314Z 06009KT 17/12 A3005 RMK A01 T01720121  RH  072%=      5-min Rain = 0
KCL1 151315Z 06011KT 17/12 A3005 RMK A01 T01730122  RH  072%=      5-min Rain = 0
KCL1 151316Z 07012KT 18/12 A3004 RMK A01 T01750122  RH  071%=      5-min Rain = 0
KCL1 151317Z 06014KT 18/12 A3004 RMK A01 T01760122  RH  070%=      5-min Rain = 0
KCL1 151318Z 07012KT 18/12 A3005 RMK A01 T01770121  RH  070%=      5-min Rain = 0
KCL1 151319Z 06010KT 18/12 A3005 RMK A01 T01780122  RH  070%=      5-min Rain = 0
KCL1 151320Z 08009KT 18/12 A3005 RMK A01 T01780122  RH  070%=      5-min Rain = 0
KCL1 151321Z 07011KT 18/12 A3005 RMK A01 T01790123  RH  069%=      5-min Rain = 0
KCL1 151322Z 07011KT 18/12 A3005 RMK A01 T01790122  RH  069%=      5-min Rain = 0
KCL1 151323Z 07009KT 18/12 A3005 RMK A01 T01780122  RH  070%=      5-min Rain = 0
KCL1 151324Z 07010KT 18/12 A3005 RMK A01 T01770122  RH  070%=      5-min Rain = 0
KCL1 151325Z 06012KT 18/12 A3005 RMK A01 T01770122  RH  070%=      5-min Rain = 0
KCL1 151326Z 06012KT 18/12 A3005 RMK A01 T01770122  RH  070%=      5-min Rain = 0
KCL1 151327Z 06012KT 18/12 A3005 RMK A01 T01770122  RH  070%=      5-min Rain = 0
KCL1 151328Z 06013KT 18/12 A3005 RMK A01 T01770122  RH  070%=      5-min Rain = 0
KCL1 151329Z 06012KT 18/12 A3005 RMK A01 T01770122  RH  070%=      5-min Rain = 0
KCL1 151330Z 07012KT 18/12 A3005 RMK A01 T01770122  RH  070%=      5-min Rain = 0
KCL1 151331Z 07010KT 18/12 A3005 RMK A01 T01770122  RH  070%=      5-min Rain = 0
KCL1 151332Z 07011KT 18/12 A3005 RMK A01 T01780123  RH  070%=      5-min Rain = 0
KCL1 151333Z 08010KT 18/12 A3005 RMK A01 T01800124  RH  070%=      5-min Rain = 0
KCL1 151334Z 07010KT 18/12 A3005 RMK A01 T01810124  RH  070%=      5-min Rain = 0
KCL1 151335Z 07013KT 18/13 A3005 RMK A01 T01820125  RH  069%=      5-min Rain = 0
KCL1 151336Z 06013KT 18/13 A3005 RMK A01 T01820125  RH  069%=      5-min Rain = 0
KCL1 151337Z 06009KT 18/12 A3005 RMK A01 T01820124  RH  069%=      5-min Rain = 0
KCL1 151338Z 06011G18KT 18/12 A3005 RMK A01 T01820124  RH  069%=      5-min Rain = 0
KCL1 151339Z 07014KT 18/12 A3005 RMK A01 T01820123  RH  068%=      5-min Rain = 0
KCL1 151340Z 08014KT 18/12 A3005 RMK A01 T01820123  RH  068%=      5-min Rain = 0
KCL1 151341Z 08013KT 18/12 A3005 RMK A01 T01830122  RH  068%=      5-min Rain = 0
KCL1 151342Z 07013KT 18/12 A3005 RMK A01 T01840123  RH  067%=      5-min Rain = 0
KCL1 151343Z 07013KT 19/12 A3005 RMK A01 T01850122  RH  067%=      5-min Rain = 0
KCL1 151344Z 08014KT 18/12 A3005 RMK A01 T01840122  RH  067%=      5-min Rain = 0
KCL1 151345Z 07015KT 18/12 A3005 RMK A01 T01830122  RH  067%=      5-min Rain = 0
KCL1 151346Z 07012KT 18/12 A3005 RMK A01 T01820122  RH  068%=      5-min Rain = 0
KCL1 151347Z 07013KT 18/12 A3005 RMK A01 T01820121  RH  068%=      5-min Rain = 0
KCL1 151348Z 07013KT 18/12 A3005 RMK A01 T01830121  RH  067%=      5-min Rain = 0
KCL1 151349Z 07013KT 18/12 A3005 RMK A01 T01830121  RH  067%=      5-min Rain = 0
KCL1 151350Z 07013KT 18/12 A3005 RMK A01 T01820121  RH  067%=      5-min Rain = 0
KCL1 151351Z 07013KT 18/12 A3005 RMK A01 T01830121  RH  067%=      5-min Rain = 0
KCL1 151352Z 07015KT 18/12 A3005 RMK A01 T01830121  RH  067%=      5-min Rain = 0
KCL1 151353Z 07014KT 18/12 A3005 RMK A01 T01820121  RH  067%=      5-min Rain = 0
KCL1 151354Z 07012KT 18/12 A3005 RMK A01 T01820121  RH  067%=      5-min Rain = 0
KCL1 151355Z 08011KT 18/12 A3005 RMK A01 T01840122  RH  067%=      5-min Rain = 0
KCL1 151356Z 07011KT 19/12 A3005 RMK A01 T01870124  RH  067%=      5-min Rain = 0
KCL1 151357Z 07011KT 19/12 A3005 RMK A01 T01890124  RH  066%=      5-min Rain = 0
KCL1 151358Z 07009KT 19/12 A3005 RMK A01 T01900124  RH  065%=      5-min Rain = 0
KCL1 151359Z 08009KT 19/13 A3005 RMK A01 T01920126  RH  065%=      5-min Rain = 0
KCL1 151400Z 08011KT 20/13 A3005 RMK A01 T01950126  RH  065%=      5-min Rain = 0
KCL1 151401Z 07012KT 20/13 A3005 RMK A01 T01960126  RH  064%=      5-min Rain = 0
KCL1 151402Z 08010KT 20/13 A3005 RMK A01 T01950126  RH  064%=      5-min Rain = 0
KCL1 151403Z 08012KT 20/13 A3005 RMK A01 T01960126  RH  064%=      5-min Rain = 0
KCL1 151404Z 07012KT 20/13 A3005 RMK A01 T01960126  RH  064%=      5-min Rain = 0
KCL1 151405Z 08011KT 20/13 A3005 RMK A01 T01960126  RH  064%=      5-min Rain = 0
KCL1 151406Z 07011KT 20/13 A3005 RMK A01 T01960126  RH  064%=      5-min Rain = 0
KCL1 151407Z 08012KT 20/13 A3005 RMK A01 T01970127  RH  064%=      5-min Rain = 0
KCL1 151408Z 09010KT 20/13 A3005 RMK A01 T01980128  RH  064%=      5-min Rain = 0
KCL1 151409Z 08012KT 20/13 A3005 RMK A01 T02000129  RH  064%=      5-min Rain = 0
KCL1 151410Z 08013KT 20/13 A3005 RMK A01 T02010129  RH  063%=      5-min Rain = 0
KCL1 151411Z 08013KT 20/13 A3005 RMK A01 T02010130  RH  064%=      5-min Rain = 0
KCL1 151412Z 08013KT 20/13 A3005 RMK A01 T02010130  RH  064%=      5-min Rain = 0
KCL1 151413Z 07010KT 20/13 A3005 RMK A01 T02010130  RH  063%=      5-min Rain = 0
KCL1 151414Z 07011KT 20/13 A3005 RMK A01 T02020130  RH  063%=      5-min Rain = 0
KCL1 151415Z 08013KT 20/13 A3005 RMK A01 T02030131  RH  063%=      5-min Rain = 0
KCL1 151416Z 08011KT 20/13 A3005 RMK A01 T02040131  RH  063%=      5-min Rain = 0
KCL1 151417Z 08009KT 20/13 A3005 RMK A01 T02040131  RH  063%=      5-min Rain = 0
KCL1 151418Z 08010KT 21/13 A3005 RMK A01 T02050132  RH  063%=      5-min Rain = 0
KCL1 151419Z 07012KT 21/13 A3005 RMK A01 T02060133  RH  063%=      5-min Rain = 0
KCL1 151420Z 07013KT 21/13 A3006 RMK A01 T02060133  RH  063%=      5-min Rain = 0
KCL1 151421Z 07013KT 21/13 A3006 RMK A01 T02050131  RH  063%=      5-min Rain = 0
KCL1 151422Z 07010KT 20/13 A3006 RMK A01 T02040132  RH  063%=      5-min Rain = 0
KCL1 151423Z 08011KT 21/13 A3005 RMK A01 T02060132  RH  063%=      5-min Rain = 0
KCL1 151424Z 08011KT 21/13 A3005 RMK A01 T02080132  RH  062%=      5-min Rain = 0
KCL1 151425Z 08013KT 21/13 A3005 RMK A01 T02080132  RH  062%=      5-min Rain = 0
KCL1 151426Z 08013KT 21/13 A3005 RMK A01 T02080132  RH  062%=      5-min Rain = 0
KCL1 151427Z 07013KT 21/13 A3006 RMK A01 T02060132  RH  062%=      5-min Rain = 0
KCL1 151428Z 07014KT 21/13 A3006 RMK A01 T02050132  RH  063%=      5-min Rain = 0
KCL1 151429Z 07012KT 21/13 A3006 RMK A01 T02050133  RH  063%=      5-min Rain = 0
KCL1 151430Z 06012KT 20/13 A3006 RMK A01 T02040133  RH  064%=      5-min Rain = 0
KCL1 151431Z 07013KT 20/13 A3006 RMK A01 T02040133  RH  064%=      5-min Rain = 0
KCL1 151432Z 07012KT 21/13 A3006 RMK A01 T02050133  RH  063%=      5-min Rain = 0
KCL1 151433Z 08011KT 20/13 A3006 RMK A01 T02040133  RH  063%=      5-min Rain = 0
KCL1 151434Z 08012KT 21/13 A3006 RMK A01 T02050132  RH  063%=      5-min Rain = 0
KCL1 151435Z 07011KT 21/13 A3006 RMK A01 T02060132  RH  063%=      5-min Rain = 0
KCL1 151436Z 06009G14KT 21/13 A3006 RMK A01 T02050132  RH  063%=      5-min Rain = 0
KCL1 151437Z 05011KT 21/13 A3006 RMK A01 T02060131  RH  062%=      5-min Rain = 0
KCL1 151438Z 07010G15KT 21/13 A3006 RMK A01 T02060132  RH  063%=      5-min Rain = 0
KCL1 151439Z 07013KT 21/13 A3006 RMK A01 T02060133  RH  063%=      5-min Rain = 0
KCL1 151440Z 06010KT 21/13 A3006 RMK A01 T02050133  RH  063%=      5-min Rain = 0
KCL1 151441Z 07012KT 21/13 A3006 RMK A01 T02050133  RH  063%=      5-min Rain = 0
KCL1 151442Z 08013KT 21/13 A3006 RMK A01 T02060134  RH  063%=      5-min Rain = 0
KCL1 151443Z 07009KT 21/13 A3006 RMK A01 T02070134  RH  063%=      5-min Rain = 0
KCL1 151444Z 08011KT 21/13 A3006 RMK A01 T02090134  RH  062%=      5-min Rain = 0
KCL1 151445Z 08011KT 21/13 A3006 RMK A01 T02110134  RH  061%=      5-min Rain = 0
KCL1 151446Z 07011KT 21/13 A3006 RMK A01 T02120134  RH  061%=      5-min Rain = 0
KCL1 151447Z 07010KT 21/13 A3006 RMK A01 T02120134  RH  061%=      5-min Rain = 0
KCL1 151448Z 08011KT 21/13 A3006 RMK A01 T02110134  RH  061%=      5-min Rain = 0
KCL1 151449Z 07012KT 21/13 A3006 RMK A01 T02110134  RH  061%=      5-min Rain = 0
KCL1 151450Z 07013KT 21/13 A3006 RMK A01 T02110133  RH  061%=      5-min Rain = 0
KCL1 151451Z 07013KT 21/13 A3006 RMK A01 T02080133  RH  062%=      5-min Rain = 0
KCL1 151452Z 07012KT 21/13 A3006 RMK A01 T02070134  RH  063%=      5-min Rain = 0
KCL1 151453Z 08013KT 21/13 A3006 RMK A01 T02060133  RH  063%=      5-min Rain = 0
KCL1 151454Z 07011KT 21/13 A3006 RMK A01 T02060133  RH  063%=      5-min Rain = 0
KCL1 151455Z 07012KT 21/14 A3006 RMK A01 T02080135  RH  063%=      5-min Rain = 0
KCL1 151456Z 07012KT 21/13 A3006 RMK A01 T02090134  RH  062%=      5-min Rain = 0
KCL1 151457Z 06012KT 21/14 A3006 RMK A01 T02100136  RH  062%=      5-min Rain = 0
KCL1 151458Z 07012KT 21/14 A3006 RMK A01 T02120137  RH  062%=      5-min Rain = 0
KCL1 151459Z 06010KT 21/14 A3006 RMK A01 T02130137  RH  062%=      5-min Rain = 0
KCL1 151500Z 06013KT 21/14 A3006 RMK A01 T02130137  RH  062%=      5-min Rain = 0
KCL1 151501Z 06011KT 21/14 A3006 RMK A01 T02130137  RH  062%=      5-min Rain = 0
KCL1 151502Z 07012KT 21/14 A3006 RMK A01 T02110138  RH  063%=      5-min Rain = 0
KCL1 151503Z 06013KT 21/14 A3006 RMK A01 T02120138  RH  063%=      5-min Rain = 0
KCL1 151504Z 06012KT 21/14 A3006 RMK A01 T02120139  RH  063%=      5-min Rain = 0
KCL1 151505Z 06011KT 21/14 A3006 RMK A01 T02120138  RH  063%=      5-min Rain = 0
KCL1 151506Z 07011KT 21/14 A3006 RMK A01 T02120139  RH  063%=      5-min Rain = 0
KCL1 151507Z 06013KT 21/14 A3006 RMK A01 T02130140  RH  063%=      5-min Rain = 0
KCL1 151508Z 06013KT 21/14 A3006 RMK A01 T02140141  RH  063%=      5-min Rain = 0
KCL1 151509Z 06011KT 21/14 A3006 RMK A01 T02140141  RH  063%=      5-min Rain = 0
KCL1 151510Z 06012KT 21/14 A3006 RMK A01 T02140142  RH  063%=      5-min Rain = 0
KCL1 151511Z 07012KT 22/14 A3006 RMK A01 T02150142  RH  063%=      5-min Rain = 0
KCL1 151512Z 07012KT 22/14 A3006 RMK A01 T02150143  RH  063%=      5-min Rain = 0
KCL1 151513Z 07014KT 22/14 A3005 RMK A01 T02150143  RH  064%=      5-min Rain = 0
KCL1 151514Z 07011KT 21/14 A3006 RMK A01 T02140142  RH  064%=      5-min Rain = 0
KCL1 151515Z 07012KT 22/14 A3006 RMK A01 T02150143  RH  063%=      5-min Rain = 0
KCL1 151516Z 07012KT 22/14 A3006 RMK A01 T02160143  RH  063%=      5-min Rain = 0
KCL1 151517Z 06010KT 22/14 A3006 RMK A01 T02170144  RH  063%=      5-min Rain = 0
KCL1 151518Z 06011KT 22/15 A3006 RMK A01 T02190145  RH  063%=      5-min Rain = 0
KCL1 151519Z 06013KT 22/15 A3006 RMK A01 T02190145  RH  062%=      5-min Rain = 0
KCL1 151520Z 05013KT 22/15 A3006 RMK A01 T02190145  RH  063%=      5-min Rain = 0
KCL1 151521Z 06012KT 22/15 A3006 RMK A01 T02190145  RH  063%=      5-min Rain = 0
KCL1 151522Z 06011KT 22/14 A3006 RMK A01 T02170144  RH  063%=      5-min Rain = 0
KCL1 151523Z 06012KT 22/15 A3006 RMK A01 T02170145  RH  063%=      5-min Rain = 0
KCL1 151524Z 06012KT 22/14 A3006 RMK A01 T02170144  RH  063%=      5-min Rain = 0
KCL1 151525Z 06010KT 22/14 A3006 RMK A01 T02170144  RH  063%=      5-min Rain = 0
KCL1 151526Z 05009KT 22/15 A3006 RMK A01 T02180145  RH  063%=      5-min Rain = 0
KCL1 151527Z 05010KT 22/15 A3006 RMK A01 T02190146  RH  063%=      5-min Rain = 0
KCL1 151528Z 06011KT 22/15 A3006 RMK A01 T02210146  RH  063%=      5-min Rain = 0
KCL1 151529Z 06010KT 22/15 A3006 RMK A01 T02210146  RH  062%=      5-min Rain = 0
KCL1 151530Z 05012KT 22/15 A3006 RMK A01 T02210146  RH  062%=      5-min Rain = 0
KCL1 151531Z 05011KT 22/15 A3006 RMK A01 T02200146  RH  063%=      5-min Rain = 0
KCL1 151532Z 05009KT 22/15 A3007 RMK A01 T02190146  RH  063%=      5-min Rain = 0
KCL1 151533Z 06012KT 22/15 A3007 RMK A01 T02170146  RH  064%=      5-min Rain = 0
KCL1 151534Z 06013KT 22/15 A3007 RMK A01 T02180146  RH  064%=      5-min Rain = 0
KCL1 151535Z 05010KT 22/15 A3007 RMK A01 T02180146  RH  064%=      5-min Rain = 0
KCL1 151536Z 07010KT 22/15 A3007 RMK A01 T02180146  RH  064%=      5-min Rain = 0
KCL1 151537Z 08008G13KT 22/15 A3006 RMK A01 T02180147  RH  064%=      5-min Rain = 0
KCL1 151538Z 07012KT 22/15 A3007 RMK A01 T02190148  RH  064%=      5-min Rain = 0
KCL1 151539Z 05011KT 22/15 A3007 RMK A01 T02200147  RH  063%=      5-min Rain = 0
KCL1 151540Z 05009KT 22/15 A3007 RMK A01 T02200147  RH  063%=      5-min Rain = 0
KCL1 151541Z 05011KT 22/15 A3007 RMK A01 T02200147  RH  063%=      5-min Rain = 0
KCL1 151542Z 05011KT 22/15 A3007 RMK A01 T02230149  RH  063%=      5-min Rain = 0
KCL1 151543Z 06011KT 23/15 A3007 RMK A01 T02260148  RH  061%=      5-min Rain = 0
KCL1 151544Z 06010KT 22/15 A3007 RMK A01 T02240147  RH  062%=      5-min Rain = 0
KCL1 151545Z 07012KT 22/15 A3007 RMK A01 T02240148  RH  062%=      5-min Rain = 0
KCL1 151546Z 07009KT 23/15 A3007 RMK A01 T02250148  RH  062%=      5-min Rain = 0
KCL1 151547Z 07008G13KT 23/15 A3007 RMK A01 T02260148  RH  061%=      5-min Rain = 0
KCL1 151548Z 07011KT 23/15 A3007 RMK A01 T02260148  RH  061%=      5-min Rain = 0
KCL1 151549Z 06008KT 22/15 A3007 RMK A01 T02230147  RH  062%=      5-min Rain = 0
KCL1 151550Z 06011KT 22/15 A3007 RMK A01 T02230147  RH  062%=      5-min Rain = 0
KCL1 151551Z 05011KT 22/15 A3007 RMK A01 T02200147  RH  063%=      5-min Rain = 0
KCL1 151552Z 04008KT 22/15 A3006 RMK A01 T02200147  RH  064%=      5-min Rain = 0
KCL1 151553Z 06010KT 22/15 A3007 RMK A01 T02230148  RH  063%=      5-min Rain = 0
KCL1 151554Z 08009KT 23/15 A3006 RMK A01 T02250149  RH  062%=      5-min Rain = 0
KCL1 151555Z 08009KT 23/15 A3007 RMK A01 T02290148  RH  060%=      5-min Rain = 0
KCL1 151556Z 07009KT 23/15 A3007 RMK A01 T02280148  RH  060%=      5-min Rain = 0
KCL1 151557Z 08011KT 23/15 A3007 RMK A01 T02280148  RH  060%=      5-min Rain = 0
KCL1 151558Z 08010KT 23/15 A3007 RMK A01 T02280147  RH  060%=      5-min Rain = 0
KCL1 151559Z 07009KT 23/15 A3007 RMK A01 T02290147  RH  060%=      5-min Rain = 0
KCL1 151600Z 05012KT 23/15 A3007 RMK A01 T02290148  RH  060%=      5-min Rain = 0
KCL1 151601Z 04010KT 23/15 A3007 RMK A01 T02290148  RH  060%=      5-min Rain = 0
KCL1 151602Z 05010KT 23/15 A3007 RMK A01 T02310147  RH  059%=      5-min Rain = 0
KCL1 151603Z 05011KT 23/15 A3007 RMK A01 T02310147  RH  059%=      5-min Rain = 0
KCL1 151604Z 06012KT 23/15 A3007 RMK A01 T02300147  RH  060%=      5-min Rain = 0
KCL1 151605Z 04005KT 23/15 A3007 RMK A01 T02300148  RH  060%=      5-min Rain = 0
KCL1 151606Z 06005G10KT 23/15 A3007 RMK A01 T02310148  RH  059%=      5-min Rain = 0
KCL1 151607Z 09010KT 23/15 A3007 RMK A01 T02310148  RH  059%=      5-min Rain = 0
KCL1 151608Z 08010KT 23/15 A3007 RMK A01 T02320148  RH  059%=      5-min Rain = 0
KCL1 151609Z 08009KT 23/15 A3007 RMK A01 T02320147  RH  059%=      5-min Rain = 0
KCL1 151610Z 07011KT 23/15 A3007 RMK A01 T02320150  RH  060%=      5-min Rain = 0
KCL1 151611Z 08010KT 24/15 A3007 RMK A01 T02370149  RH  058%=      5-min Rain = 0
KCL1 151612Z 07009KT 24/15 A3007 RMK A01 T02370149  RH  058%=      5-min Rain = 0
KCL1 151613Z 07008KT 24/15 A3007 RMK A01 T02360149  RH  058%=      5-min Rain = 0
KCL1 151614Z 06009KT 24/15 A3007 RMK A01 T02380150  RH  058%=      5-min Rain = 0
KCL1 151615Z 06009KT 24/15 A3007 RMK A01 T02410150  RH  057%=      5-min Rain = 0
KCL1 151616Z 03010KT 24/15 A3007 RMK A01 T02410150  RH  056%=      5-min Rain = 0
KCL1 151617Z 03009KT 24/15 A3007 RMK A01 T02380148  RH  057%=      5-min Rain = 0
KCL1 151618Z 04010KT 24/15 A3007 RMK A01 T02350148  RH  058%=      5-min Rain = 0
KCL1 151619Z 04011KT 23/15 A3007 RMK A01 T02330148  RH  059%=      5-min Rain = 0
KCL1 151620Z 04012KT 23/15 A3007 RMK A01 T02310147  RH  059%=      5-min Rain = 0
KCL1 151621Z 03012KT 23/15 A3007 RMK A01 T02300147  RH  059%=      5-min Rain = 0
KCL1 151622Z 05011KT 23/15 A3007 RMK A01 T02290147  RH  060%=      5-min Rain = 0
KCL1 151623Z 07010KT 23/15 A3007 RMK A01 T02260147  RH  061%=      5-min Rain = 0
KCL1 151624Z 06008KT 22/15 A3007 RMK A01 T02240148  RH  062%=      5-min Rain = 0
KCL1 151625Z 06011G16KT 23/15 A3007 RMK A01 T02250149  RH  062%=      5-min Rain = 0
KCL1 151626Z 06011KT 23/15 A3007 RMK A01 T02270149  RH  061%=      5-min Rain = 0
KCL1 151627Z 06012KT 23/15 A3007 RMK A01 T02290150  RH  061%=      5-min Rain = 0
KCL1 151628Z 05010KT 23/15 A3007 RMK A01 T02280148  RH  061%=      5-min Rain = 0
KCL1 151629Z 04012G17KT 23/15 A3007 RMK A01 T02250147  RH  061%=      5-min Rain = 0
KCL1 151630Z 06011KT 22/15 A3007 RMK A01 T02240147  RH  062%=      5-min Rain = 0
KCL1 151631Z 07010KT 22/15 A3007 RMK A01 T02230148  RH  062%=      5-min Rain = 0
KCL1 151632Z 07011KT 23/15 A3007 RMK A01 T02250149  RH  062%=      5-min Rain = 0
KCL1 151633Z 05011KT 23/15 A3007 RMK A01 T02270149  RH  062%=      5-min Rain = 0
KCL1 151634Z 05012KT 23/15 A3007 RMK A01 T02270149  RH  061%=      5-min Rain = 0
KCL1 151635Z 07010G15KT 23/15 A3007 RMK A01 T02260149  RH  062%=      5-min Rain = 0
KCL1 151636Z 07012KT 23/15 A3007 RMK A01 T02260152  RH  063%=      5-min Rain = 0
KCL1 151637Z 09013G18KT 23/15 A3007 RMK A01 T02270152  RH  062%=      5-min Rain = 0
KCL1 151638Z 08011KT 23/15 A3007 RMK A01 T02280152  RH  062%=      5-min Rain = 0
KCL1 151639Z 08012KT 23/15 A3007 RMK A01 T02290152  RH  062%=      5-min Rain = 0
KCL1 151640Z 06012KT 23/15 A3008 RMK A01 T02290152  RH  062%=      5-min Rain = 0
KCL1 151641Z 08013KT 23/15 A3008 RMK A01 T02270152  RH  062%=      5-min Rain = 0
KCL1 151642Z 08016KT 23/15 A3008 RMK A01 T02260151  RH  062%=      5-min Rain = 0
KCL1 151643Z 09013KT 22/15 A3008 RMK A01 T02230150  RH  063%=      5-min Rain = 0
KCL1 151644Z 09013KT 22/15 A3008 RMK A01 T02200151  RH  065%=      5-min Rain = 0
KCL1 151645Z 08013KT 22/15 A3008 RMK A01 T02200152  RH  065%=      5-min Rain = 0
KCL1 151646Z 08014KT 22/15 A3008 RMK A01 T02210151  RH  065%=      5-min Rain = 0
KCL1 151647Z 08014KT 22/15 A3008 RMK A01 T02220152  RH  065%=      5-min Rain = 0
KCL1 151648Z 08013KT 22/15 A3008 RMK A01 T02220152  RH  065%=      5-min Rain = 0
KCL1 151649Z 08013KT 22/15 A3008 RMK A01 T02210152  RH  065%=      5-min Rain = 0
KCL1 151650Z 07013KT 22/15 A3008 RMK A01 T02220153  RH  065%=      5-min Rain = 0
KCL1 151651Z 07012KT 22/15 A3008 RMK A01 T02220152  RH  065%=      5-min Rain = 0
KCL1 151652Z 07015KT 22/15 A3008 RMK A01 T02200152  RH  065%=      5-min Rain = 0
KCL1 151653Z 07015KT 22/15 A3008 RMK A01 T02210152  RH  065%=      5-min Rain = 0
KCL1 151654Z 08016KT 22/15 A3008 RMK A01 T02200152  RH  065%=      5-min Rain = 0
KCL1 151655Z 08018KT 22/15 A3008 RMK A01 T02200152  RH  065%=      5-min Rain = 0
KCL1 151656Z 09016KT 22/15 A3008 RMK A01 T02190151  RH  065%=      5-min Rain = 0
KCL1 151657Z 09015KT 22/15 A3008 RMK A01 T02180151  RH  066%=      5-min Rain = 0
KCL1 151658Z 09014KT 22/15 A3008 RMK A01 T02170152  RH  066%=      5-min Rain = 0
KCL1 151659Z 08012KT 22/15 A3008 RMK A01 T02170152  RH  066%=      5-min Rain = 0
KCL1 151700Z 07013KT 22/15 A3008 RMK A01 T02170151  RH  066%=      5-min Rain = 0
KCL1 151701Z 07015KT 22/15 A3008 RMK A01 T02190152  RH  066%=      5-min Rain = 0
KCL1 151702Z 07012KT 22/15 A3008 RMK A01 T02230153  RH  064%=      5-min Rain = 0
KCL1 151703Z 07016KT 23/15 A3008 RMK A01 T02270154  RH  063%=      5-min Rain = 0
KCL1 151704Z 06016KT 23/15 A3008 RMK A01 T02300154  RH  062%=      5-min Rain = 0
KCL1 151705Z 06015KT 23/15 A3008 RMK A01 T02320154  RH  061%=      5-min Rain = 0
KCL1 151706Z 07016KT 23/15 A3008 RMK A01 T02320154  RH  061%=      5-min Rain = 0
KCL1 151707Z 06016KT 23/16 A3008 RMK A01 T02300155  RH  062%=      5-min Rain = 0
KCL1 151708Z 06017KT 23/15 A3008 RMK A01 T02310154  RH  062%=      5-min Rain = 0
KCL1 151709Z 06016KT 23/15 A3008 RMK A01 T02300153  RH  062%=      5-min Rain = 0
KCL1 151710Z 07015KT 23/15 A3008 RMK A01 T02270153  RH  063%=      5-min Rain = 0
KCL1 151711Z 06013KT 22/15 A3008 RMK A01 T02240153  RH  064%=      5-min Rain = 0
KCL1 151712Z 07012KT 22/15 A3008 RMK A01 T02240153  RH  064%=      5-min Rain = 0
KCL1 151713Z 06011KT 22/15 A3008 RMK A01 T02230154  RH  065%=      5-min Rain = 0
KCL1 151714Z 06014KT 23/15 A3008 RMK A01 T02250154  RH  064%=      5-min Rain = 0
KCL1 151715Z 06017KT 23/15 A3008 RMK A01 T02260154  RH  064%=      5-min Rain = 0
KCL1 151716Z 07013KT 23/15 A3008 RMK A01 T02250153  RH  064%=      5-min Rain = 0
KCL1 151717Z 07014KT 23/15 A3008 RMK A01 T02260154  RH  064%=      5-min Rain = 0
KCL1 151718Z 08016KT 23/16 A3009 RMK A01 T02290155  RH  063%=      5-min Rain = 0
KCL1 151719Z 08017KT 23/15 A3009 RMK A01 T02300154  RH  062%=      5-min Rain = 0
KCL1 151720Z 08017KT 23/15 A3009 RMK A01 T02300154  RH  062%=      5-min Rain = 0
KCL1 151721Z 08013KT 23/16 A3009 RMK A01 T02330156  RH  062%=      5-min Rain = 0
KCL1 151722Z 08015KT 24/16 A3009 RMK A01 T02400157  RH  060%=      5-min Rain = 0
KCL1 151723Z 08013KT 24/15 A3009 RMK A01 T02390154  RH  059%=      5-min Rain = 0
KCL1 151724Z 08015KT 24/15 A3009 RMK A01 T02390154  RH  059%=      5-min Rain = 0
KCL1 151725Z 07013KT 24/15 A3009 RMK A01 T02380152  RH  059%=      5-min Rain = 0
KCL1 151726Z 06016KT 23/15 A3009 RMK A01 T02320150  RH  060%=      5-min Rain = 0
KCL1 151727Z 08015KT 23/15 A3009 RMK A01 T02280150  RH  061%=      5-min Rain = 0
KCL1 151728Z 09013KT 23/15 A3009 RMK A01 T02280150  RH  062%=      5-min Rain = 0
KCL1 151729Z 06014G19KT 23/15 A3009 RMK A01 T02280151  RH  062%=      5-min Rain = 0
KCL1 151730Z 06013KT 23/15 A3009 RMK A01 T02310151  RH  061%=      5-min Rain = 0
KCL1 151731Z 06016KT 23/15 A3009 RMK A01 T02320151  RH  060%=      5-min Rain = 0
KCL1 151732Z 06014KT 23/15 A3009 RMK A01 T02280150  RH  061%=      5-min Rain = 0
KCL1 151733Z 07017KT 23/15 A3009 RMK A01 T02280151  RH  062%=      5-min Rain = 0
KCL1 151734Z 06015KT 23/15 A3009 RMK A01 T02300152  RH  061%=      5-min Rain = 0
KCL1 151735Z 05016KT 23/15 A3009 RMK A01 T02320150  RH  060%=      5-min Rain = 0
KCL1 151736Z 05016KT 23/15 A3009 RMK A01 T02300149  RH  060%=      5-min Rain = 0
KCL1 151737Z 05013KT 23/15 A3009 RMK A01 T02270148  RH  061%=      5-min Rain = 0
KCL1 151738Z 05012KT 23/15 A3009 RMK A01 T02250149  RH  062%=      5-min Rain = 0
KCL1 151739Z 06013KT 23/15 A3009 RMK A01 T02260150  RH  062%=      5-min Rain = 0
KCL1 151740Z 06014KT 23/15 A3009 RMK A01 T02270149  RH  062%=      5-min Rain = 0
KCL1 151741Z 06013KT 23/15 A3009 RMK A01 T02250149  RH  062%=      5-min Rain = 0
KCL1 151742Z 06016KT 22/15 A3009 RMK A01 T02240149  RH  063%=      5-min Rain = 0
KCL1 151743Z 07015KT 22/15 A3009 RMK A01 T02230149  RH  063%=      5-min Rain = 0
KCL1 151744Z 07013KT 22/15 A3009 RMK A01 T02220149  RH  063%=      5-min Rain = 0
KCL1 151745Z 06014G19KT 22/15 A3009 RMK A01 T02210149  RH  064%=      5-min Rain = 0
KCL1 151746Z 06011G17KT 22/15 A3009 RMK A01 T02220150  RH  064%=      5-min Rain = 0
KCL1 151747Z 05015G20KT 23/15 A3009 RMK A01 T02270150  RH  062%=      5-min Rain = 0
KCL1 151748Z 06012KT 23/15 A3009 RMK A01 T02270149  RH  061%=      5-min Rain = 0
KCL1 151749Z 06012KT 23/15 A3009 RMK A01 T02260149  RH  062%=      5-min Rain = 0
KCL1 151750Z 07014KT 23/15 A3009 RMK A01 T02270149  RH  061%=      5-min Rain = 0
KCL1 151751Z 07013KT 22/15 A3009 RMK A01 T02240147  RH  062%=      5-min Rain = 0
KCL1 151752Z 07012KT 22/15 A3009 RMK A01 T02220148  RH  063%=      5-min Rain = 0
KCL1 151753Z 06013KT 23/15 A3009 RMK A01 T02250151  RH  063%=      5-min Rain = 0
KCL1 151754Z 07012KT 23/15 A3009 RMK A01 T02320153  RH  061%=      5-min Rain = 0
KCL1 151755Z 07016KT 23/15 A3009 RMK A01 T02340152  RH  060%=      5-min Rain = 0
KCL1 151756Z 06016KT 23/15 A3009 RMK A01 T02310149  RH  060%=      5-min Rain = 0
KCL1 151757Z 06014KT 23/15 A3009 RMK A01 T02250148  RH  062%=      5-min Rain = 0
KCL1 151758Z 07016KT 22/15 A3009 RMK A01 T02230149  RH  063%=      5-min Rain = 0
KCL1 151759Z 07012KT 22/15 A3009 RMK A01 T02240150  RH  063%=      5-min Rain = 0
KCL1 151800Z 07009KT 23/15 A3009 RMK A01 T02260152  RH  063%=      5-min Rain = 0
KCL1 151801Z 06015KT 23/15 A3009 RMK A01 T02320153  RH  061%=      5-min Rain = 0
KCL1 151802Z 05015KT 23/15 A3009 RMK A01 T02330151  RH  060%=      5-min Rain = 0
KCL1 151803Z 06014KT 23/15 A3009 RMK A01 T02330151  RH  060%=      5-min Rain = 0
KCL1 151804Z 07013KT 23/15 A3009 RMK A01 T02340151  RH  060%=      5-min Rain = 0
KCL1 151805Z 06012KT 24/15 A3008 RMK A01 T02360151  RH  059%=      5-min Rain = 0
KCL1 151806Z 05011G16KT 24/15 A3008 RMK A01 T02370151  RH  059%=      5-min Rain = 0
KCL1 151807Z 06014KT 24/15 A3009 RMK A01 T02370152  RH  059%=      5-min Rain = 0
KCL1 151808Z 08011KT 24/15 A3008 RMK A01 T02380152  RH  059%=      5-min Rain = 0
KCL1 151809Z 08014KT 24/15 A3009 RMK A01 T02420152  RH  057%=      5-min Rain = 0
KCL1 151810Z 09013G18KT 24/15 A3008 RMK A01 T02400151  RH  057%=      5-min Rain = 0
KCL1 151811Z 07014KT 24/15 A3008 RMK A01 T02390150  RH  057%=      5-min Rain = 0
KCL1 151812Z 06012KT 24/15 A3008 RMK A01 T02380148  RH  057%=      5-min Rain = 0
KCL1 151813Z 06010KT 24/15 A3008 RMK A01 T02360149  RH  058%=      5-min Rain = 0
KCL1 151814Z 07011KT 23/15 A3008 RMK A01 T02330149  RH  059%=      5-min Rain = 0
KCL1 151815Z 08011KT 23/15 A3008 RMK A01 T02310149  RH  060%=      5-min Rain = 0
KCL1 151816Z 08012KT 23/15 A3008 RMK A01 T02330151  RH  060%=      5-min Rain = 0
KCL1 151817Z 06009KT 24/15 A3008 RMK A01 T02380152  RH  059%=      5-min Rain = 0
KCL1 151818Z 06013G18KT 24/15 A3008 RMK A01 T02420150  RH  056%=      5-min Rain = 0
KCL1 151819Z 07014KT 24/15 A3009 RMK A01 T02390149  RH  057%=      5-min Rain = 0
KCL1 151820Z 06011KT 24/15 A3008 RMK A01 T02370151  RH  058%=      5-min Rain = 0
KCL1 151821Z 06011KT 24/15 A3008 RMK A01 T02390151  RH  058%=      5-min Rain = 0
KCL1 151822Z 08011KT 24/15 A3008 RMK A01 T02390151  RH  058%=      5-min Rain = 0
KCL1 151823Z 08010KT 24/15 A3008 RMK A01 T02410151  RH  057%=      5-min Rain = 0
KCL1 151824Z 08013KT 24/15 A3008 RMK A01 T02390152  RH  058%=      5-min Rain = 0
KCL1 151825Z 06015KT 24/15 A3008 RMK A01 T02410152  RH  058%=      5-min Rain = 0
KCL1 151826Z 07013KT 24/15 A3008 RMK A01 T02350149  RH  059%=      5-min Rain = 0
KCL1 151827Z 08010G15KT 23/15 A3008 RMK A01 T02330150  RH  060%=      5-min Rain = 0
KCL1 151828Z 08012KT 23/15 A3008 RMK A01 T02320148  RH  059%=      5-min Rain = 0
KCL1 151829Z 06013G18KT 23/15 A3008 RMK A01 T02330150  RH  060%=      5-min Rain = 0
KCL1 151830Z 07010G17KT 24/15 A3008 RMK A01 T02350150  RH  059%=      5-min Rain = 0
KCL1 151831Z 07013KT 23/15 A3008 RMK A01 T02340150  RH  059%=      5-min Rain = 0
KCL1 151832Z 07010G15KT 24/15 A3008 RMK A01 T02380152  RH  059%=      5-min Rain = 0
KCL1 151833Z 08010KT 24/15 A3008 RMK A01 T02380152  RH  058%=      5-min Rain = 0
KCL1 151834Z 08014KT 24/15 A3008 RMK A01 T02400153  RH  058%=      5-min Rain = 0
KCL1 151835Z 08013KT 24/15 A3008 RMK A01 T02400152  RH  058%=      5-min Rain = 0
KCL1 151836Z 09011KT 24/15 A3009 RMK A01 T02350151  RH  059%=      5-min Rain = 0
KCL1 151837Z 08013G18KT 23/15 A3008 RMK A01 T02320151  RH  060%=      5-min Rain = 0
KCL1 151838Z 08013KT 23/15 A3009 RMK A01 T02320152  RH  061%=      5-min Rain = 0
KCL1 151839Z 07013KT 23/15 A3009 RMK A01 T02300151  RH  061%=      5-min Rain = 0
KCL1 151840Z 08011KT 23/15 A3009 RMK A01 T02290153  RH  062%=      5-min Rain = 0
KCL1 151841Z 07007KT 23/15 A3009 RMK A01 T02330154  RH  061%=      5-min Rain = 0
KCL1 151842Z 06009KT 24/16 A3009 RMK A01 T02370155  RH  060%=      5-min Rain = 0
KCL1 151843Z 08012KT 24/15 A3009 RMK A01 T02380154  RH  059%=      5-min Rain = 0
KCL1 151844Z 05013KT 24/15 A3009 RMK A01 T02380153  RH  059%=      5-min Rain = 0
KCL1 151845Z 08013KT 24/15 A3009 RMK A01 T02360152  RH  059%=      5-min Rain = 0
KCL1 151846Z 06010KT 24/15 A3009 RMK A01 T02380151  RH  058%=      5-min Rain = 0
KCL1 151847Z 07008KT 24/15 A3009 RMK A01 T02390151  RH  058%=      5-min Rain = 0
KCL1 151848Z 07009G14KT 24/15 A3009 RMK A01 T02420153  RH  058%=      5-min Rain = 0
KCL1 151849Z 07008KT 24/15 A3009 RMK A01 T02420153  RH  058%=      5-min Rain = 0
KCL1 151850Z 07011KT 24/15 A3009 RMK A01 T02420153  RH  057%=      5-min Rain = 0
KCL1 151851Z 09012KT 24/15 A3009 RMK A01 T02410151  RH  057%=      5-min Rain = 0
KCL1 151852Z 10010KT 24/15 A3009 RMK A01 T02360150  RH  058%=      5-min Rain = 0
KCL1 151853Z 09012KT 23/15 A3009 RMK A01 T02330150  RH  060%=      5-min Rain = 0
KCL1 151854Z 09009KT 23/15 A3009 RMK A01 T02310151  RH  061%=      5-min Rain = 0
KCL1 151855Z 10009KT 23/15 A3009 RMK A01 T02310151  RH  061%=      5-min Rain = 0
KCL1 151856Z 06011KT 23/15 A3009 RMK A01 T02320152  RH  061%=      5-min Rain = 0
KCL1 151857Z 06012KT 23/15 A3009 RMK A01 T02310151  RH  061%=      5-min Rain = 0
KCL1 151858Z 06010KT 23/15 A3009 RMK A01 T02300150  RH  061%=      5-min Rain = 0
KCL1 151859Z 07012KT 23/15 A3008 RMK A01 T02290152  RH  062%=      5-min Rain = 0
KCL1 151900Z 07012G17KT 23/15 A3008 RMK A01 T02340153  RH  060%=      5-min Rain = 0
KCL1 151901Z 06012KT 24/15 A3008 RMK A01 T02350153  RH  060%=      5-min Rain = 0
KCL1 151902Z 07015KT 24/15 A3008 RMK A01 T02350152  RH  060%=      5-min Rain = 0
KCL1 151903Z 07012KT 23/15 A3008 RMK A01 T02340151  RH  060%=      5-min Rain = 0
KCL1 151904Z 08013KT 23/15 A3008 RMK A01 T02330152  RH  060%=      5-min Rain = 0
KCL1 151905Z 07010KT 23/15 A3008 RMK A01 T02330153  RH  060%=      5-min Rain = 0
KCL1 151906Z 07011KT 23/15 A3008 RMK A01 T02340153  RH  060%=      5-min Rain = 0
KCL1 151907Z 08008KT 24/15 A3008 RMK A01 T02350154  RH  060%=      5-min Rain = 0
KCL1 151908Z 09011G17KT 24/15 A3008 RMK A01 T02370153  RH  059%=      5-min Rain = 0
KCL1 151909Z 08012KT 23/15 A3008 RMK A01 T02340151  RH  059%=      5-min Rain = 0
KCL1 151910Z 08010KT 23/15 A3008 RMK A01 T02310152  RH  061%=      5-min Rain = 0
KCL1 151911Z 09013KT 24/16 A3008 RMK A01 T02360155  RH  060%=      5-min Rain = 0
KCL1 151912Z 09012KT 24/16 A3008 RMK A01 T02400155  RH  059%=      5-min Rain = 0
KCL1 151913Z 08016KT 24/15 A3008 RMK A01 T02420154  RH  058%=      5-min Rain = 0
KCL1 151914Z 07012KT 24/15 A3008 RMK A01 T02440153  RH  057%=      5-min Rain = 0
KCL1 151915Z 08013KT 24/15 A3008 RMK A01 T02440152  RH  057%=      5-min Rain = 0
KCL1 151916Z 08012KT 24/15 A3008 RMK A01 T02430153  RH  057%=      5-min Rain = 0
KCL1 151917Z 07011KT 24/15 A3008 RMK A01 T02400152  RH  058%=      5-min Rain = 0
KCL1 151918Z 08009KT 24/15 A3008 RMK A01 T02360151  RH  059%=      5-min Rain = 0
KCL1 151919Z 06009G15KT 24/15 A3008 RMK A01 T02350152  RH  060%=      5-min Rain = 0
KCL1 151920Z 07010KT 24/15 A3008 RMK A01 T02380152  RH  058%=      5-min Rain = 0
KCL1 151921Z 07010KT 24/15 A3008 RMK A01 T02350150  RH  059%=      5-min Rain = 0
KCL1 151922Z 09011KT 23/15 A3008 RMK A01 T02340150  RH  059%=      5-min Rain = 0
KCL1 151923Z 08015KT 23/15 A3008 RMK A01 T02340151  RH  060%=      5-min Rain = 0
KCL1 151924Z 08014KT 23/15 A3008 RMK A01 T02340151  RH  060%=      5-min Rain = 0
KCL1 151925Z 09009KT 23/15 A3008 RMK A01 T02320151  RH  060%=      5-min Rain = 0
KCL1 151926Z 06011KT 23/15 A3008 RMK A01 T02340152  RH  060%=      5-min Rain = 0
KCL1 151927Z 06011KT 24/15 A3008 RMK A01 T02370152  RH  059%=      5-min Rain = 0
KCL1 151928Z 06010KT 24/15 A3008 RMK A01 T02380152  RH  059%=      5-min Rain = 0
KCL1 151929Z 05010KT 24/15 A3008 RMK A01 T02390151  RH  058%=      5-min Rain = 0
KCL1 151930Z 09011KT 24/15 A3008 RMK A01 T02420153  RH  058%=      5-min Rain = 0
KCL1 151931Z 09010KT 24/15 A3008 RMK A01 T02430154  RH  057%=      5-min Rain = 0
KCL1 151932Z 07013KT 24/15 A3008 RMK A01 T02430154  RH  057%=      5-min Rain = 0
KCL1 151933Z 08010KT 25/15 A3008 RMK A01 T02450153  RH  057%=      5-min Rain = 0
KCL1 151934Z 09008G13KT 24/15 A3008 RMK A01 T02440153  RH  057%=      5-min Rain = 0
KCL1 151935Z 10009KT 25/15 A3008 RMK A01 T02450154  RH  057%=      5-min Rain = 0
KCL1 151936Z 10013KT 25/15 A3008 RMK A01 T02460152  RH  056%=      5-min Rain = 0
KCL1 151937Z 08013KT 25/15 A3008 RMK A01 T02460152  RH  056%=      5-min Rain = 0
KCL1 151938Z 08013KT 25/15 A3008 RMK A01 T02480150  RH  054%=      5-min Rain = 0
KCL1 151939Z 06009KT 24/15 A3008 RMK A01 T02430148  RH  055%=      5-min Rain = 0
KCL1 151940Z 07007G13KT 24/15 A3007 RMK A01 T02410149  RH  056%=      5-min Rain = 0
KCL1 151941Z 09008KT 24/15 A3007 RMK A01 T02400149  RH  057%=      5-min Rain = 0
KCL1 151942Z 08011KT 24/15 A3007 RMK A01 T02410151  RH  057%=      5-min Rain = 0
KCL1 151943Z 09012KT 24/15 A3007 RMK A01 T02430150  RH  056%=      5-min Rain = 0
KCL1 151944Z 08007KT 24/15 A3007 RMK A01 T02430149  RH  056%=      5-min Rain = 0
KCL1 151945Z 06010KT 24/15 A3007 RMK A01 T02430150  RH  056%=      5-min Rain = 0
KCL1 151946Z 08015KT 24/15 A3007 RMK A01 T02440151  RH  056%=      5-min Rain = 0
KCL1 151947Z 08016KT 25/15 A3007 RMK A01 T02450150  RH  055%=      5-min Rain = 0
KCL1 151948Z 08012KT 24/15 A3007 RMK A01 T02420148  RH  056%=      5-min Rain = 0
KCL1 151949Z 09009KT 24/15 A3007 RMK A01 T02410148  RH  056%=      5-min Rain = 0
KCL1 151950Z 09009KT 24/15 A3007 RMK A01 T02420149  RH  056%=      5-min Rain = 0
KCL1 151951Z 10009KT 25/15 A3007 RMK A01 T02490150  RH  054%=      5-min Rain = 0
KCL1 151952Z 08010KT 25/15 A3007 RMK A01 T02530151  RH  053%=      5-min Rain = 0
KCL1 151953Z 08012KT 26/15 A3007 RMK A01 T02550149  RH  052%=      5-min Rain = 0
KCL1 151954Z 11011KT 25/15 A3007 RMK A01 T02540150  RH  052%=      5-min Rain = 0
KCL1 151955Z 11009KT 25/15 A3007 RMK A01 T02540150  RH  052%=      5-min Rain = 0
KCL1 151956Z 08013KT 25/15 A3007 RMK A01 T02530150  RH  053%=      5-min Rain = 0
KCL1 151957Z 08014KT 25/15 A3007 RMK A01 T02540145  RH  051%=      5-min Rain = 0
KCL1 151958Z 08013KT 25/14 A3007 RMK A01 T02510143  RH  051%=      5-min Rain = 0
KCL1 151959Z 09010KT 25/14 A3007 RMK A01 T02480141  RH  051%=      5-min Rain = 0
KCL1 152000Z 08009KT 25/14 A3007 RMK A01 T02470139  RH  051%=      5-min Rain = 0
KCL1 152001Z 08009KT 25/14 A3007 RMK A01 T02470139  RH  051%=      5-min Rain = 0
KCL1 152002Z 08009KT 25/14 A3007 RMK A01 T02500142  RH  051%=      5-min Rain = 0
KCL1 152003Z 07011KT 25/14 A3007 RMK A01 T02500144  RH  052%=      5-min Rain = 0
KCL1 152004Z 08011KT 25/14 A3007 RMK A01 T02490144  RH  052%=      5-min Rain = 0
KCL1 152005Z 07011KT 25/14 A3007 RMK A01 T02500144  RH  052%=      5-min Rain = 0
KCL1 152006Z 08009KT 25/14 A3007 RMK A01 T02500143  RH  051%=      5-min Rain = 0
KCL1 152007Z 10012KT 25/15 A3007 RMK A01 T02480145  RH  052%=      5-min Rain = 0
KCL1 152008Z 10010KT 25/15 A3007 RMK A01 T02490146  RH  053%=      5-min Rain = 0
KCL1 152009Z 08009KT 25/15 A3007 RMK A01 T02480146  RH  053%=      5-min Rain = 0
KCL1 152010Z 05009KT 25/15 A3007 RMK A01 T02480148  RH  054%=      5-min Rain = 0
KCL1 152011Z 08009KT 25/15 A3007 RMK A01 T02480145  RH  053%=      5-min Rain = 0
KCL1 152012Z 08009KT 25/15 A3007 RMK A01 T02480145  RH  053%=      5-min Rain = 0
KCL1 152013Z 09014KT 25/15 A3007 RMK A01 T02500145  RH  052%=      5-min Rain = 0
KCL1 152014Z 08012KT 25/15 A3007 RMK A01 T02510145  RH  052%=      5-min Rain = 0
KCL1 152015Z 10013KT 25/15 A3007 RMK A01 T02520148  RH  052%=      5-min Rain = 0
KCL1 152016Z 09010KT 25/15 A3006 RMK A01 T02510147  RH  053%=      5-min Rain = 0
KCL1 152017Z 09007G12KT 25/15 A3006 RMK A01 T02490149  RH  054%=      5-min Rain = 0
KCL1 152018Z 08010KT 25/15 A3006 RMK A01 T02520149  RH  053%=      5-min Rain = 0
KCL1 152019Z 08011KT 26/15 A3006 RMK A01 T02560145  RH  050%=      5-min Rain = 0
KCL1 152020Z 09010KT 26/15 A3006 RMK A01 T02570145  RH  050%=      5-min Rain = 0
KCL1 152021Z 11010KT 26/15 A3006 RMK A01 T02570145  RH  050%=      5-min Rain = 0
KCL1 152022Z 10007KT 26/15 A3006 RMK A01 T02560146  RH  050%=      5-min Rain = 0
KCL1 152023Z 11008KT 26/15 A3006 RMK A01 T02550147  RH  051%=      5-min Rain = 0
KCL1 152024Z 09015KT 26/14 A3006 RMK A01 T02570143  RH  049%=      5-min Rain = 0
KCL1 152025Z 07011G16KT 26/14 A3006 RMK A01 T02580142  RH  049%=      5-min Rain = 0
KCL1 152026Z 07014KT 26/14 A3006 RMK A01 T02600144  RH  049%=      5-min Rain = 0
KCL1 152027Z 08011G17KT 25/14 A3006 RMK A01 T02510140  RH  050%=      5-min Rain = 0
KCL1 152028Z 08011KT 24/14 A3006 RMK A01 T02440138  RH  052%=      5-min Rain = 0
KCL1 152029Z 09009KT 24/14 A3006 RMK A01 T02440136  RH  051%=      5-min Rain = 0
KCL1 152030Z 10010KT 25/14 A3006 RMK A01 T02470139  RH  051%=      5-min Rain = 0
KCL1 152031Z 11007KT 25/14 A3006 RMK A01 T02490140  RH  051%=      5-min Rain = 0
KCL1 152032Z 13008KT 25/14 A3005 RMK A01 T02500142  RH  051%=      5-min Rain = 0
KCL1 152033Z 08010KT 25/14 A3006 RMK A01 T02540144  RH  051%=      5-min Rain = 0
KCL1 152034Z 08009KT 26/14 A3006 RMK A01 T02580143  RH  049%=      5-min Rain = 0
KCL1 152035Z 09007KT 26/14 A3006 RMK A01 T02600143  RH  048%=      5-min Rain = 0
KCL1 152036Z 07010G15KT 26/14 A3005 RMK A01 T02620143  RH  048%=      5-min Rain = 0
KCL1 152037Z 10008KT 26/14 A3005 RMK A01 T02600141  RH  048%=      5-min Rain = 0
KCL1 152038Z 10012KT 26/14 A3005 RMK A01 T02600141  RH  048%=      5-min Rain = 0
KCL1 152039Z 09010KT 26/14 A3005 RMK A01 T02600143  RH  048%=      5-min Rain = 0
KCL1 152040Z 11009KT 26/14 A3005 RMK A01 T02570141  RH  049%=      5-min Rain = 0
KCL1 152041Z 10010KT 26/14 A3005 RMK A01 T02550140  RH  049%=      5-min Rain = 0
KCL1 152042Z 07009KT 26/14 A3005 RMK A01 T02560141  RH  049%=      5-min Rain = 0
KCL1 152043Z 07010KT 26/14 A3005 RMK A01 T02560143  RH  050%=      5-min Rain = 0
KCL1 152044Z 07009KT 26/14 A3005 RMK A01 T02600143  RH  049%=      5-min Rain = 0
KCL1 152045Z 09011KT 26/14 A3005 RMK A01 T02620144  RH  048%=      5-min Rain = 0
KCL1 152046Z 08008KT 26/14 A3005 RMK A01 T02600142  RH  048%=      5-min Rain = 0
KCL1 152047Z 05007KT 25/14 A3005 RMK A01 T02530142  RH  050%=      5-min Rain = 0
KCL1 152048Z 07006KT 25/14 A3005 RMK A01 T02500142  RH  051%=      5-min Rain = 0
KCL1 152049Z 09006KT 25/14 A3005 RMK A01 T02500142  RH  051%=      5-min Rain = 0
KCL1 152050Z 09012KT 25/15 A3005 RMK A01 T02520145  RH  051%=      5-min Rain = 0
KCL1 152051Z 10011KT 26/14 A3005 RMK A01 T02550144  RH  050%=      5-min Rain = 0
KCL1 152052Z 09010KT 25/14 A3005 RMK A01 T02540143  RH  050%=      5-min Rain = 0
KCL1 152053Z 09010KT 25/14 A3005 RMK A01 T02510142  RH  051%=      5-min Rain = 0
KCL1 152054Z 10007KT 25/14 A3005 RMK A01 T02480143  RH  052%=      5-min Rain = 0
KCL1 152055Z 10004KT 24/14 A3005 RMK A01 T02440143  RH  053%=      5-min Rain = 0
KCL1 152056Z 09008KT 24/14 A3005 RMK A01 T02430144  RH  054%=      5-min Rain = 0
KCL1 152057Z 08009KT 25/14 A3005 RMK A01 T02460143  RH  053%=      5-min Rain = 0
KCL1 152058Z 08011KT 25/14 A3004 RMK A01 T02490144  RH  052%=      5-min Rain = 0
KCL1 152059Z 07011KT 25/14 A3004 RMK A01 T02530143  RH  051%=      5-min Rain = 0
KCL1 152100Z 07010KT 25/14 A3004 RMK A01 T02530143  RH  051%=      5-min Rain = 0
KCL1 152101Z 07008KT 25/14 A3004 RMK A01 T02520143  RH  051%=      5-min Rain = 0
KCL1 152102Z 09007G13KT 25/15 A3004 RMK A01 T02520145  RH  051%=      5-min Rain = 0
KCL1 152103Z 08014KT 26/14 A3004 RMK A01 T02570143  RH  049%=      5-min Rain = 0
KCL1 152104Z 08014KT 26/14 A3004 RMK A01 T02580141  RH  048%=      5-min Rain = 0
KCL1 152105Z 08012KT 26/14 A3004 RMK A01 T02580142  RH  049%=      5-min Rain = 0
KCL1 152106Z 09009KT 26/14 A3004 RMK A01 T02570141  RH  049%=      5-min Rain = 0
KCL1 152107Z 07006KT 26/14 A3004 RMK A01 T02560140  RH  049%=      5-min Rain = 0
KCL1 152108Z 08010KT 26/14 A3004 RMK A01 T02550140  RH  049%=      5-min Rain = 0
KCL1 152109Z 09010KT 26/14 A3004 RMK A01 T02560139  RH  048%=      5-min Rain = 0
KCL1 152110Z 09010KT 26/14 A3004 RMK A01 T02590139  RH  048%=      5-min Rain = 0
KCL1 152111Z 09008KT 26/14 A3004 RMK A01 T02600138  RH  047%=      5-min Rain = 0
KCL1 152112Z 09007KT 26/14 A3004 RMK A01 T02600138  RH  047%=      5-min Rain = 0
KCL1 152113Z 06005KT 26/14 A3004 RMK A01 T02600136  RH  046%=      5-min Rain = 0
KCL1 152114Z 03006KT 26/14 A3003 RMK A01 T02600137  RH  047%=      5-min Rain = 0
KCL1 152115Z 03006KT 26/14 A3003 RMK A01 T02600136  RH  046%=      5-min Rain = 0
KCL1 152116Z 06004KT 26/14 A3003 RMK A01 T02600137  RH  047%=      5-min Rain = 0
KCL1 152117Z 09006G11KT 26/14 A3003 RMK A01 T02640140  RH  046%=      5-min Rain = 0
KCL1 152118Z 07008KT 27/14 A3003 RMK A01 T02670142  RH  046%=      5-min Rain = 0
KCL1 152119Z 08013KT 27/14 A3003 RMK A01 T02690144  RH  046%=      5-min Rain = 0
KCL1 152120Z 07011KT 27/14 A3003 RMK A01 T02680143  RH  046%=      5-min Rain = 0
KCL1 152121Z 08012KT 27/14 A3003 RMK A01 T02670144  RH  047%=      5-min Rain = 0
KCL1 152122Z 08011KT 27/14 A3003 RMK A01 T02650141  RH  047%=      5-min Rain = 0
KCL1 152123Z 09009KT 26/14 A3003 RMK A01 T02580139  RH  048%=      5-min Rain = 0
KCL1 152124Z 07007KT 26/14 A3003 RMK A01 T02550139  RH  049%=      5-min Rain = 0
KCL1 152125Z 07007KT 25/14 A3003 RMK A01 T02540140  RH  049%=      5-min Rain = 0
KCL1 152126Z 07009KT 25/14 A3003 RMK A01 T02530139  RH  049%=      5-min Rain = 0
KCL1 152127Z 09010KT 26/14 A3003 RMK A01 T02550139  RH  049%=      5-min Rain = 0
KCL1 152128Z 09008KT 25/14 A3003 RMK A01 T02540139  RH  049%=      5-min Rain = 0
KCL1 152129Z 10010KT 26/14 A3003 RMK A01 T02550139  RH  049%=      5-min Rain = 0
KCL1 152130Z 10007KT 26/14 A3003 RMK A01 T02560138  RH  048%=      5-min Rain = 0
KCL1 152131Z 10006KT 26/14 A3003 RMK A01 T02570138  RH  048%=      5-min Rain = 0
KCL1 152132Z 06007KT 26/14 A3003 RMK A01 T02580138  RH  047%=      5-min Rain = 0
KCL1 152133Z 06006KT 26/14 A3003 RMK A01 T02590138  RH  047%=      5-min Rain = 0
KCL1 152134Z 05006KT 26/14 A3003 RMK A01 T02590138  RH  047%=      5-min Rain = 0
KCL1 152135Z 06005KT 26/14 A3003 RMK A01 T02570135  RH  047%=      5-min Rain = 0
KCL1 152136Z 07004KT 26/14 A3003 RMK A01 T02590136  RH  047%=      5-min Rain = 0
KCL1 152137Z 04005KT 26/14 A3003 RMK A01 T02620136  RH  046%=      5-min Rain = 0
KCL1 152138Z 05008KT 26/14 A3003 RMK A01 T02620135  RH  046%=      5-min Rain = 0
KCL1 152139Z 06008KT 26/14 A3003 RMK A01 T02630140  RH  047%=      5-min Rain = 0
KCL1 152140Z 07011KT 27/14 A3003 RMK A01 T02660140  RH  046%=      5-min Rain = 0
KCL1 152141Z 07008KT 26/14 A3002 RMK A01 T02640138  RH  046%=      5-min Rain = 0
KCL1 152142Z 06006KT 26/14 A3002 RMK A01 T02610138  RH  047%=      5-min Rain = 0
KCL1 152143Z 08004KT 26/14 A3002 RMK A01 T02610139  RH  047%=      5-min Rain = 0
KCL1 152144Z 11009KT 26/14 A3002 RMK A01 T02640140  RH  046%=      5-min Rain = 0
KCL1 152145Z 11009KT 27/14 A3002 RMK A01 T02660140  RH  046%=      5-min Rain = 0
KCL1 152146Z 11007G12KT 27/14 A3002 RMK A01 T02660138  RH  045%=      5-min Rain = 0
KCL1 152147Z 10009KT 27/14 A3002 RMK A01 T02660137  RH  045%=      5-min Rain = 0
KCL1 152148Z 10007KT 26/14 A3002 RMK A01 T02640136  RH  045%=      5-min Rain = 0
KCL1 152149Z 11010KT 26/14 A3002 RMK A01 T02640137  RH  046%=      5-min Rain = 0
KCL1 152150Z 11009KT 27/14 A3002 RMK A01 T02670138  RH  045%=      5-min Rain = 0
KCL1 152151Z 12008KT 27/14 A3002 RMK A01 T02690137  RH  044%=      5-min Rain = 0
KCL1 152152Z 14004KT 27/14 A3002 RMK A01 T02680135  RH  044%=      5-min Rain = 0
KCL1 152153Z 16003KT 27/14 A3002 RMK A01 T02650135  RH  045%=      5-min Rain = 0
KCL1 152154Z 14003KT 26/14 A3002 RMK A01 T02640135  RH  045%=      5-min Rain = 0
KCL1 152155Z 07004KT 26/14 A3002 RMK A01 T02640135  RH  045%=      5-min Rain = 0
KCL1 152156Z 06005KT 27/14 A3002 RMK A01 T02650135  RH  045%=      5-min Rain = 0
KCL1 152157Z 10006KT 26/14 A3002 RMK A01 T02620135  RH  046%=      5-min Rain = 0
KCL1 152158Z 12007KT 26/14 A3002 RMK A01 T02620136  RH  046%=      5-min Rain = 0
KCL1 152159Z 14005KT 26/14 A3001 RMK A01 T02630136  RH  045%=      5-min Rain = 0
KCL1 152200Z 11007KT 26/14 A3001 RMK A01 T02640136  RH  045%=      5-min Rain = 0
KCL1 152201Z 07008KT 26/14 A3002 RMK A01 T02640137  RH  046%=      5-min Rain = 0
KCL1 152202Z 07009KT 26/14 A3001 RMK A01 T02640137  RH  045%=      5-min Rain = 0
KCL1 152203Z 08009KT 27/14 A3002 RMK A01 T02650136  RH  045%=      5-min Rain = 0
KCL1 152204Z 09010KT 27/14 A3002 RMK A01 T02660137  RH  045%=      5-min Rain = 0
KCL1 152205Z 09007KT 27/14 A3001 RMK A01 T02650135  RH  045%=      5-min Rain = 0
KCL1 152206Z 09008KT 26/14 A3001 RMK A01 T02630136  RH  045%=      5-min Rain = 0
KCL1 152207Z 11005KT 26/13 A3001 RMK A01 T02620134  RH  045%=      5-min Rain = 0
KCL1 152208Z 11005KT 26/13 A3001 RMK A01 T02620134  RH  045%=      5-min Rain = 0
KCL1 152209Z 12006KT 26/13 A3001 RMK A01 T02640132  RH  044%=      5-min Rain = 0
KCL1 152210Z 14005KT 27/13 A3001 RMK A01 T02660131  RH  043%=      5-min Rain = 0
KCL1 152211Z 14004KT 27/13 A3001 RMK A01 T02670132  RH  043%=      5-min Rain = 0
KCL1 152212Z 11002KT 27/13 A3001 RMK A01 T02680133  RH  043%=      5-min Rain = 0
KCL1 152213Z 08004KT 27/13 A3001 RMK A01 T02690133  RH  043%=      5-min Rain = 0
KCL1 152214Z 12002KT 27/13 A3001 RMK A01 T02680133  RH  043%=      5-min Rain = 0
KCL1 152215Z 08002KT 27/13 A3001 RMK A01 T02660134  RH  044%=      5-min Rain = 0
KCL1 152216Z 06005G10KT 27/14 A3001 RMK A01 T02670135  RH  044%=      5-min Rain = 0
KCL1 152217Z 08008KT 27/14 A3001 RMK A01 T02670138  RH  045%=      5-min Rain = 0
KCL1 152218Z 09010G15KT 27/14 A3001 RMK A01 T02680140  RH  045%=      5-min Rain = 0
KCL1 152219Z 09013KT 27/14 A3001 RMK A01 T02670139  RH  045%=      5-min Rain = 0
KCL1 152220Z 08009KT 26/14 A3001 RMK A01 T02640139  RH  046%=      5-min Rain = 0
KCL1 152221Z 08007KT 26/14 A3001 RMK A01 T02630139  RH  046%=      5-min Rain = 0
KCL1 152222Z 06008G13KT 26/14 A30 RMK A01 T02640139  RH  046%=      5-min Rain = 0
KCL1 152223Z 08011KT 27/14 A30 RMK A01 T02660139  RH  046%=      5-min Rain = 0
KCL1 152224Z 10011KT 27/14 A30 RMK A01 T02680139  RH  045%=      5-min Rain = 0
KCL1 152225Z 09008G13KT 27/14 A30 RMK A01 T02690138  RH  045%=      5-min Rain = 0
KCL1 152226Z 10007KT 27/14 A30 RMK A01 T02650137  RH  045%=      5-min Rain = 0
KCL1 152227Z 10009KT 26/14 A30 RMK A01 T02630137  RH  046%=      5-min Rain = 0
KCL1 152228Z 09009KT 26/14 A30 RMK A01 T02640137  RH  045%=      5-min Rain = 0
KCL1 152229Z 09008KT 26/14 A30 RMK A01 T02640137  RH  045%=      5-min Rain = 0
KCL1 152230Z 11005KT 26/14 A30 RMK A01 T02640136  RH  045%=      5-min Rain = 0
KCL1 152231Z 09006G12KT 26/14 A30 RMK A01 T02640136  RH  045%=      5-min Rain = 0
KCL1 152232Z 09008KT 26/14 A30 RMK A01 T02640138  RH  046%=      5-min Rain = 0
KCL1 152233Z 10005KT 26/14 A30 RMK A01 T02620139  RH  047%=      5-min Rain = 0
KCL1 152234Z 10008KT 26/14 A30 RMK A01 T02620136  RH  046%=      5-min Rain = 0
KCL1 152235Z 09010KT 26/14 A30 RMK A01 T02630137  RH  046%=      5-min Rain = 0
KCL1 152236Z 09007KT 27/14 A30 RMK A01 T02650135  RH  045%=      5-min Rain = 0
KCL1 152237Z 09005KT 26/14 A30 RMK A01 T02640136  RH  045%=      5-min Rain = 0
KCL1 152238Z 10008KT 26/14 A30 RMK A01 T02640139  RH  046%=      5-min Rain = 0
KCL1 152239Z 08007KT 27/14 A30 RMK A01 T02650140  RH  046%=      5-min Rain = 0
KCL1 152240Z 06007KT 27/14 A30 RMK A01 T02650139  RH  046%=      5-min Rain = 0
KCL1 152241Z 06006G11KT 26/14 A30 RMK A01 T02640138  RH  046%=      5-min Rain = 0
KCL1 152242Z 08009KT 26/14 A30 RMK A01 T02640139  RH  046%=      5-min Rain = 0
KCL1 152243Z 10010KT 27/14 A30 RMK A01 T02660139  RH  045%=      5-min Rain = 0
KCL1 152244Z 09007KT 27/14 A30 RMK A01 T02660137  RH  045%=      5-min Rain = 0
KCL1 152245Z 07007KT 26/14 A30 RMK A01 T02630137  RH  046%=      5-min Rain = 0
KCL1 152246Z 08008KT 26/14 A30 RMK A01 T02640137  RH  045%=      5-min Rain = 0
KCL1 152247Z 09007KT 27/14 A30 RMK A01 T02650136  RH  045%=      5-min Rain = 0
KCL1 152248Z 10009KT 27/14 A30 RMK A01 T02670135  RH  044%=      5-min Rain = 0
KCL1 152249Z 11006KT 27/13 A30 RMK A01 T02670134  RH  044%=      5-min Rain = 0
KCL1 152250Z 06006KT 27/14 A30 RMK A01 T02670135  RH  044%=      5-min Rain = 0
KCL1 152251Z 05004KT 26/13 A30 RMK A01 T02640134  RH  045%=      5-min Rain = 0
KCL1 152252Z 05008KT 26/14 A30 RMK A01 T02620136  RH  046%=      5-min Rain = 0
KCL1 152253Z 05007KT 26/14 A30 RMK A01 T02640136  RH  045%=      5-min Rain = 0
KCL1 152254Z 04004KT 26/14 A30 RMK A01 T02630137  RH  046%=      5-min Rain = 0
KCL1 152255Z 05003KT 26/14 A30 RMK A01 T02630137  RH  046%=      5-min Rain = 0
KCL1 152256Z 06004KT 26/14 A2999 RMK A01 T02630136  RH  046%=      5-min Rain = 0
KCL1 152257Z 08007KT 26/14 A2999 RMK A01 T02630135  RH  045%=      5-min Rain = 0
KCL1 152258Z 05008KT 27/13 A2999 RMK A01 T02670134  RH  044%=      5-min Rain = 0
KCL1 152259Z 05008KT 27/13 A2999 RMK A01 T02680133  RH  043%=      5-min Rain = 0
KCL1 152300Z 04007KT 27/13 A2999 RMK A01 T02660131  RH  043%=      5-min Rain = 0
KCL1 152301Z 05006KT 27/13 A2999 RMK A01 T02650131  RH  043%=      5-min Rain = 0
KCL1 152302Z 05006KT 27/13 A2999 RMK A01 T02650131  RH  043%=      5-min Rain = 0
KCL1 152303Z 07005KT 27/13 A2999 RMK A01 T02670130  RH  043%=      5-min Rain = 0
KCL1 152304Z 08007KT 27/13 A2999 RMK A01 T02680131  RH  043%=      5-min Rain = 0
KCL1 152305Z 08007KT 27/13 A2999 RMK A01 T02690130  RH  042%=      5-min Rain = 0
KCL1 152306Z 08005KT 27/13 A2999 RMK A01 T02680131  RH  043%=      5-min Rain = 0
KCL1 152307Z 09004KT 27/13 A2999 RMK A01 T02660130  RH  043%=      5-min Rain = 0
KCL1 152308Z 06004KT 27/13 A2999 RMK A01 T02660130  RH  043%=      5-min Rain = 0
KCL1 152309Z 05003KT 27/13 A2998 RMK A01 T02660130  RH  043%=      5-min Rain = 0
KCL1 152310Z 07004KT 27/13 A2998 RMK A01 T02670130  RH  043%=      5-min Rain = 0
KCL1 152311Z 08006KT 27/13 A2998 RMK A01 T02660134  RH  044%=      5-min Rain = 0
KCL1 152312Z 08009KT 27/14 A2998 RMK A01 T02660137  RH  045%=      5-min Rain = 0
KCL1 152313Z 08008G13KT 26/14 A2998 RMK A01 T02640136  RH  045%=      5-min Rain = 0
KCL1 152314Z 07009KT 26/14 A2998 RMK A01 T02630137  RH  046%=      5-min Rain = 0
KCL1 152315Z 08010KT 26/14 A2998 RMK A01 T02620137  RH  046%=      5-min Rain = 0
KCL1 152316Z 08008KT 26/14 A2998 RMK A01 T02620136  RH  046%=      5-min Rain = 0
KCL1 152317Z 08007KT 26/14 A2998 RMK A01 T02600135  RH  046%=      5-min Rain = 0
KCL1 152318Z 09004KT 26/13 A2998 RMK A01 T02580134  RH  046%=      5-min Rain = 0
KCL1 152319Z 08004KT 26/13 A2998 RMK A01 T02560134  RH  047%=      5-min Rain = 0
KCL1 152320Z 06007KT 26/13 A2998 RMK A01 T02550134  RH  047%=      5-min Rain = 0
KCL1 152321Z 06010KT 26/13 A2998 RMK A01 T02550133  RH  047%=      5-min Rain = 0
KCL1 152322Z 07007KT 26/13 A2998 RMK A01 T02550133  RH  047%=      5-min Rain = 0
KCL1 152323Z 06007KT 26/13 A2998 RMK A01 T02550133  RH  047%=      5-min Rain = 0
KCL1 152324Z 06006KT 26/13 A2998 RMK A01 T02550133  RH  047%=      5-min Rain = 0
KCL1 152325Z 06008KT 25/13 A2998 RMK A01 T02540133  RH  047%=      5-min Rain = 0
KCL1 152326Z 08006KT 25/13 A2998 RMK A01 T02530132  RH  047%=      5-min Rain = 0
KCL1 152327Z 07006KT 25/13 A2998 RMK A01 T02530132  RH  047%=      5-min Rain = 0
KCL1 152328Z 08008KT 25/13 A2998 RMK A01 T02530133  RH  047%=      5-min Rain = 0
KCL1 152329Z 09008KT 25/13 A2998 RMK A01 T02540134  RH  047%=      5-min Rain = 0
KCL1 152330Z 08008KT 25/13 A2998 RMK A01 T02540134  RH  047%=      5-min Rain = 0
KCL1 152331Z 08010KT 25/13 A2998 RMK A01 T02540133  RH  047%=      5-min Rain = 0
KCL1 152332Z 08008KT 25/13 A2998 RMK A01 T02540132  RH  047%=      5-min Rain = 0
KCL1 152333Z 08006KT 25/13 A2998 RMK A01 T02540132  RH  047%=      5-min Rain = 0
KCL1 152334Z 08007KT 25/13 A2997 RMK A01 T02540133  RH  047%=      5-min Rain = 0
KCL1 152335Z 07006KT 25/13 A2997 RMK A01 T02540132  RH  047%=      5-min Rain = 0
KCL1 152336Z 07008KT 25/13 A2997 RMK A01 T02540133  RH  047%=      5-min Rain = 0
KCL1 152337Z 08008KT 25/13 A2997 RMK A01 T02540133  RH  047%=      5-min Rain = 0
KCL1 152338Z 07008KT 25/13 A2997 RMK A01 T02530133  RH  047%=      5-min Rain = 0
KCL1 152339Z 08006KT 25/13 A2997 RMK A01 T02530133  RH  047%=      5-min Rain = 0
KCL1 152340Z 07007KT 25/13 A2997 RMK A01 T02520133  RH  048%=      5-min Rain = 0
KCL1 152341Z 07007KT 25/13 A2997 RMK A01 T02520133  RH  047%=      5-min Rain = 0
KCL1 152342Z 07007KT 25/13 A2997 RMK A01 T02520132  RH  047%=      5-min Rain = 0
KCL1 152343Z 06007KT 25/13 A2997 RMK A01 T02520132  RH  047%=      5-min Rain = 0
KCL1 152344Z 06007KT 25/13 A2997 RMK A01 T02520131  RH  047%=      5-min Rain = 0
KCL1 152345Z 07006KT 25/13 A2997 RMK A01 T02520131  RH  047%=      5-min Rain = 0
KCL1 152346Z 07007KT 25/13 A2997 RMK A01 T02520132  RH  047%=      5-min Rain = 0
KCL1 152347Z 07008KT 25/13 A2997 RMK A01 T02520134  RH  048%=      5-min Rain = 0
KCL1 152348Z 08010KT 25/14 A2997 RMK A01 T02520136  RH  049%=      5-min Rain = 0
KCL1 152349Z 09008KT 25/14 A2997 RMK A01 T02520137  RH  049%=      5-min Rain = 0
KCL1 152350Z 09009KT 25/14 A2997 RMK A01 T02520137  RH  049%=      5-min Rain = 0
KCL1 152351Z 09009KT 25/14 A2997 RMK A01 T02510136  RH  049%=      5-min Rain = 0
KCL1 152352Z 09009KT 25/14 A2997 RMK A01 T02520137  RH  049%=      5-min Rain = 0
KCL1 152353Z 08011KT 25/14 A2997 RMK A01 T02520138  RH  049%=      5-min Rain = 0
KCL1 152354Z 09010KT 25/14 A2997 RMK A01 T02510139  RH  050%=      5-min Rain = 0
KCL1 152355Z 09008KT 25/14 A2996 RMK A01 T02510138  RH  050%=      5-min Rain = 0
KCL1 152356Z 09008KT 25/14 A2996 RMK A01 T02510139  RH  050%=      5-min Rain = 0
KCL1 152357Z 08007KT 25/14 A2996 RMK A01 T02510139  RH  050%=      5-min Rain = 0
KCL1 152358Z 07008KT 25/14 A2996 RMK A01 T02500138  RH  050%=      5-min Rain = 0
KCL1 152359Z 08009KT 25/14 A2996 RMK A01 T02500138  RH  050%=      5-min Rain = 0
KCL1 160000Z 08011KT 25/14 A2996 RMK A01 T02490137  RH  050%=      5-min Rain = 0
KCL1 160001Z 08010KT 25/14 A2996 RMK A01 T02480137  RH  050%=      5-min Rain = 0
KCL1 160002Z 08008KT 25/14 A2996 RMK A01 T02480136  RH  050%=      5-min Rain = 0
KCL1 160003Z 07008KT 25/14 A2996 RMK A01 T02480136  RH  050%=      5-min Rain = 0
KCL1 160004Z 08008KT 25/14 A2996 RMK A01 T02470136  RH  050%=      5-min Rain = 0
KCL1 160005Z 08008KT 25/14 A2996 RMK A01 T02470137  RH  050%=      5-min Rain = 0
KCL1 160006Z 08008KT 25/14 A2996 RMK A01 T02470137  RH  050%=      5-min Rain = 0
KCL1 160007Z 08008KT 25/14 A2996 RMK A01 T02470137  RH  051%=      5-min Rain = 0
KCL1 160008Z 08008KT 25/14 A2996 RMK A01 T02460138  RH  051%=      5-min Rain = 0
KCL1 160009Z 07008KT 25/14 A2996 RMK A01 T02460138  RH  051%=      5-min Rain = 0
KCL1 160010Z 08008KT 25/14 A2996 RMK A01 T02460138  RH  051%=      5-min Rain = 0
KCL1 160011Z 07009KT 25/14 A2996 RMK A01 T02450138  RH  051%=      5-min Rain = 0
KCL1 160012Z 07008KT 25/14 A2996 RMK A01 T02450138  RH  051%=      5-min Rain = 0
KCL1 160013Z 07007KT 25/14 A2996 RMK A01 T02450139  RH  051%=      5-min Rain = 0
KCL1 160014Z 08007KT 25/14 A2996 RMK A01 T02450139  RH  052%=      5-min Rain = 0
KCL1 160015Z 08007KT 25/14 A2996 RMK A01 T02450139  RH  052%=      5-min Rain = 0
KCL1 160016Z 08008KT 25/14 A2996 RMK A01 T02450139  RH  052%=      5-min Rain = 0
KCL1 160017Z 08008KT 25/14 A2996 RMK A01 T02450138  RH  051%=      5-min Rain = 0
KCL1 160018Z 09008KT 25/14 A2996 RMK A01 T02450138  RH  051%=      5-min Rain = 0
KCL1 160019Z 09007KT 25/14 A2997 RMK A01 T02450138  RH  051%=      5-min Rain = 0
KCL1 160020Z 09007KT 25/14 A2997 RMK A01 T02450138  RH  051%=      5-min Rain = 0
KCL1 160021Z 09008KT 25/14 A2997 RMK A01 T02450138  RH  051%=      5-min Rain = 0
KCL1 160022Z 09006KT 25/14 A2997 RMK A01 T02450139  RH  052%=      5-min Rain = 0
KCL1 160023Z 10006KT 25/14 A2997 RMK A01 T02450139  RH  052%=      5-min Rain = 0
KCL1 160024Z 09007KT 24/14 A2997 RMK A01 T02440139  RH  052%=      5-min Rain = 0
KCL1 160025Z 09007KT 24/14 A2997 RMK A01 T02440140  RH  052%=      5-min Rain = 0
KCL1 160026Z 10006KT 24/14 A2998 RMK A01 T02440140  RH  052%=      5-min Rain = 0
KCL1 160027Z 10007KT 24/14 A2998 RMK A01 T02430140  RH  052%=      5-min Rain = 0
KCL1 160028Z 10006KT 24/14 A2998 RMK A01 T02430141  RH  053%=      5-min Rain = 0
KCL1 160029Z 09005KT 24/14 A2998 RMK A01 T02430141  RH  053%=      5-min Rain = 0
KCL1 160030Z 10005KT 24/14 A2998 RMK A01 T02430141  RH  053%=      5-min Rain = 0
KCL1 160031Z 09005KT 24/14 A2998 RMK A01 T02430140  RH  053%=      5-min Rain = 0
KCL1 160032Z 08004KT 24/14 A2998 RMK A01 T02430140  RH  053%=      5-min Rain = 0
KCL1 160033Z 08004KT 24/14 A2998 RMK A01 T02420140  RH  053%=      5-min Rain = 0
KCL1 160034Z 07004KT 24/14 A2998 RMK A01 T02420140  RH  053%=      5-min Rain = 0
KCL1 160035Z 07004KT 24/14 A2998 RMK A01 T02410140  RH  053%=      5-min Rain = 0
KCL1 160036Z 06004KT 24/14 A2998 RMK A01 T02410140  RH  053%=      5-min Rain = 0
KCL1 160037Z 05004KT 24/14 A2998 RMK A01 T02410140  RH  053%=      5-min Rain = 0
KCL1 160038Z 04005KT 24/14 A2998 RMK A01 T02400140  RH  053%=      5-min Rain = 0
KCL1 160039Z 05005KT 24/14 A2998 RMK A01 T02400139  RH  053%=      5-min Rain = 0
KCL1 160040Z 05006KT 24/14 A2999 RMK A01 T02400139  RH  053%=      5-min Rain = 0
KCL1 160041Z 04007KT 24/14 A2999 RMK A01 T02400138  RH  053%=      5-min Rain = 0
KCL1 160042Z 05006KT 24/14 A2999 RMK A01 T02400138  RH  053%=      5-min Rain = 0
KCL1 160043Z 04005KT 24/14 A2999 RMK A01 T02400138  RH  053%=      5-min Rain = 0
KCL1 160044Z 03005KT 24/14 A2999 RMK A01 T02400139  RH  053%=      5-min Rain = 0
KCL1 160045Z 03005KT 24/14 A2999 RMK A01 T02400139  RH  053%=      5-min Rain = 0
KCL1 160046Z 04005KT 24/14 A2999 RMK A01 T02390139  RH  053%=      5-min Rain = 0
KCL1 160047Z 04005KT 24/14 A2999 RMK A01 T02390139  RH  053%=      5-min Rain = 0
KCL1 160048Z 04005KT 24/14 A30 RMK A01 T02380139  RH  054%=      5-min Rain = 0
KCL1 160049Z 04004KT 24/14 A30 RMK A01 T02380139  RH  054%=      5-min Rain = 0
KCL1 160050Z 05005KT 24/14 A30 RMK A01 T02370139  RH  054%=      5-min Rain = 0
KCL1 160051Z 05005KT 24/14 A30 RMK A01 T02370139  RH  054%=      5-min Rain = 0
KCL1 160052Z 04004KT 24/14 A3001 RMK A01 T02370139  RH  054%=      5-min Rain = 0
KCL1 160053Z 05005KT 24/14 A3001 RMK A01 T02370139  RH  054%=      5-min Rain = 0
KCL1 160054Z 04005KT 24/14 A3001 RMK A01 T02370139  RH  054%=      5-min Rain = 0
KCL1 160055Z 04005KT 24/14 A3001 RMK A01 T02370139  RH  054%=      5-min Rain = 0
KCL1 160056Z 04005KT 24/14 A3001 RMK A01 T02370138  RH  054%=      5-min Rain = 0
KCL1 160057Z 04005KT 24/14 A3001 RMK A01 T02370138  RH  054%=      5-min Rain = 0
KCL1 160058Z 04005KT 24/14 A3002 RMK A01 T02360138  RH  054%=      5-min Rain = 0
KCL1 160059Z 04005KT 24/14 A3002 RMK A01 T02360138  RH  054%=      5-min Rain = 0
KCL1 160100Z 05005KT 24/14 A3002 RMK A01 T02350137  RH  054%=      5-min Rain = 0
KCL1 160101Z 05005KT 24/14 A3002 RMK A01 T02350138  RH  054%=      5-min Rain = 0
KCL1 160102Z 05005KT 24/14 A3002 RMK A01 T02350137  RH  054%=      5-min Rain = 0
KCL1 160103Z 05004KT 24/14 A3002 RMK A01 T02350137  RH  054%=      5-min Rain = 0
KCL1 160104Z 05005KT 23/14 A3002 RMK A01 T02340137  RH  054%=      5-min Rain = 0
KCL1 160105Z 05004KT 23/14 A3003 RMK A01 T02340137  RH  054%=      5-min Rain = 0
KCL1 160106Z 04004KT 23/14 A3003 RMK A01 T02340137  RH  054%=      5-min Rain = 0
KCL1 160107Z 03003KT 23/14 A3003 RMK A01 T02340137  RH  054%=      5-min Rain = 0
KCL1 160108Z 02002KT 23/14 A3003 RMK A01 T02330136  RH  054%=      5-min Rain = 0
KCL1 160109Z 28001KT 23/14 A3004 RMK A01 T02340137  RH  054%=      5-min Rain = 0
KCL1 160110Z 25002KT 23/14 A3004 RMK A01 T02340136  RH  054%=      5-min Rain = 0
KCL1 160111Z 24004KT 23/14 A3004 RMK A01 T02340136  RH  054%=      5-min Rain = 0
KCL1 160112Z 23005KT 24/14 A3005 RMK A01 T02350137  RH  054%=      5-min Rain = 0
KCL1 160113Z 22005KT 24/14 A3005 RMK A01 T02360138  RH  054%=      5-min Rain = 0
KCL1 160114Z 19004KT 24/14 A3005 RMK A01 T02370138  RH  054%=      5-min Rain = 0
KCL1 160115Z 14003KT 24/14 A3005 RMK A01 T02380138  RH  054%=      5-min Rain = 0
KCL1 160116Z 12005KT 24/14 A3005 RMK A01 T02380138  RH  054%=      5-min Rain = 0
KCL1 160117Z 14001KT 24/14 A3006 RMK A01 T02380138  RH  054%=      5-min Rain = 0
KCL1 160118Z 25001KT 24/14 A3006 RMK A01 T02380138  RH  054%=      5-min Rain = 0
KCL1 160119Z 06001KT 24/14 A3006 RMK A01 T02380138  RH  054%=      5-min Rain = 0
KCL1 160120Z 32004KT 24/14 A3006 RMK A01 T02380139  RH  054%=      5-min Rain = 0
KCL1 160121Z 31008KT 24/14 A3007 RMK A01 T02380140  RH  054%=      5-min Rain = 0
KCL1 160122Z 29006KT 24/14 A3007 RMK A01 T02370140  RH  054%=      5-min Rain = 0
KCL1 160123Z 29007KT 24/14 A3007 RMK A01 T02360138  RH  054%=      5-min Rain = 0
KCL1 160124Z 30005KT 24/13 A3007 RMK A01 T02370134  RH  052%=      5-min Rain = 0
KCL1 160125Z 32002KT 24/13 A3008 RMK A01 T02390134  RH  052%=      5-min Rain = 0
KCL1 160126Z 34000KT 24/13 A3008 RMK A01 T02400133  RH  051%=      5-min Rain = 0
KCL1 160127Z 30005G12KT 24/13 A3008 RMK A01 T02410134  RH  051%=      5-min Rain = 0
KCL1 160128Z 30012G18KT 24/14 A3009 RMK A01 T02410136  RH  052%=      5-min Rain = 0
KCL1 160129Z 29013G18KT 24/14 A3009 RMK A01 T02410135  RH  052%=      5-min Rain = 0
KCL1 160130Z 30016KT 24/12 A3009 RMK A01 T02420124  RH  048%=      5-min Rain = 0
KCL1 160131Z 28023G34KT 24/12 A3009 RMK A01 T02410121  RH  047%=      5-min Rain = 0
KCL1 160132Z 28023G33KT 24/11 A3009 RMK A01 T02380108  RH  044%=      5-min Rain = 0
KCL1 160133Z 28023G30KT 23/10 A3009 RMK A01 T02320104  RH  045%=      5-min Rain = 0
KCL1 160134Z 27020G29KT 22/10 A3008 RMK A01 T02240102  RH  046%=      5-min Rain = 0
KCL1 160135Z 27023G30KT 22/10 A3009 RMK A01 T02180103  RH  048%=      5-min Rain = 0
KCL1 160136Z 28022G36KT 21/10 A3008 RMK A01 T02120103  RH  050%=      5-min Rain = 0
KCL1 160137Z 29034G43KT 21/10 A3008 RMK A01 T02060104  RH  052%=      5-min Rain = 0
KCL1 160138Z 29031G39KT 20/10 A3009 RMK A01 T02000104  RH  054%=      5-min Rain = 0
KCL1 160139Z 29029G36KT 20/11 A3009 RMK A01 T01950106  RH  056%=      5-min Rain = 0
KCL1 160140Z 30025G32KT 19/11 A3009 RMK A01 T01920108  RH  058%=      5-min Rain = 0
KCL1 160141Z 30030G42KT 19/10 A3009 RMK A01 T01900104  RH  057%=      5-min Rain = 0
KCL1 160142Z 30028G35KT 19/10 A3009 RMK A01 T01880104  RH  058%=      5-min Rain = 0
KCL1 160143Z 30023G31KT 19/10 A3009 RMK A01 T01870103  RH  058%=      5-min Rain = 0
KCL1 160144Z 30024G29KT 19/10 A3009 RMK A01 T01850098  RH  057%=      5-min Rain = 0
KCL1 160145Z 30025G36KT 19/09 A3008 RMK A01 T01890090  RH  053%=      5-min Rain = 0
KCL1 160146Z 30017G22KT 19/10 A3009 RMK A01 T01920096  RH  054%=      5-min Rain = 0
KCL1 160147Z 30019G27KT 19/10 A3008 RMK A01 T01890101  RH  056%=      5-min Rain = 0
KCL1 160148Z 31024G31KT 19/10 A3008 RMK A01 T01870096  RH  055%=      5-min Rain = 0
KCL1 160149Z 30021G26KT 19/10 A3008 RMK A01 T01880098  RH  056%=      5-min Rain = 0
KCL1 160150Z 31020KT 19/10 A3008 RMK A01 T01870100  RH  057%=      5-min Rain = 0
KCL1 160151Z 31022KT 19/10 A3007 RMK A01 T01870100  RH  057%=      5-min Rain = 0
KCL1 160152Z 32017G22KT 19/10 A3007 RMK A01 T01870099  RH  056%=      5-min Rain = 0.01
KCL1 160153Z 34019G24KT 19/10 A3006 RMK A01 T01880098  RH  056%=      5-min Rain = 0
KCL1 160154Z 35018KT 19/10 A3005 RMK A01 T01900099  RH  056%=      5-min Rain = 0
KCL1 160155Z 33019KT 19/10 A3005 RMK A01 T01900096  RH  054%=      5-min Rain = 0
KCL1 160156Z 33016G24KT 19/09 A3004 RMK A01 T01930088  RH  050%=      5-min Rain = 0
KCL1 160157Z 35017KT 20/09 A3004 RMK A01 T01980090  RH  050%=      5-min Rain = 0
KCL1 160158Z 01014KT 20/09 A3004 RMK A01 T01980093  RH  051%=      5-min Rain = 0
KCL1 160159Z 00013KT 20/10 A3004 RMK A01 T01970095  RH  052%=      5-min Rain = 0
KCL1 160200Z 01009KT 20/10 A3004 RMK A01 T01960096  RH  053%=      5-min Rain = 0
KCL1 160201Z 02007KT 19/10 A3004 RMK A01 T01940095  RH  053%=      5-min Rain = 0
KCL1 160202Z 03006KT 19/09 A3004 RMK A01 T01940093  RH  052%=      5-min Rain = 0
KCL1 160203Z 05007KT 20/09 A3003 RMK A01 T01950089  RH  050%=      5-min Rain = 0
KCL1 160204Z 04008KT 20/09 A3003 RMK A01 T01970087  RH  049%=      5-min Rain = 0
KCL1 160205Z 02010KT 20/10 A3002 RMK A01 T01970095  RH  051%=      5-min Rain = 0
KCL1 160206Z 06007KT 20/10 A3001 RMK A01 T01950096  RH  053%=      5-min Rain = 0
KCL1 160207Z 07008KT 19/10 A30 RMK A01 T01920097  RH  054%=      5-min Rain = 0
KCL1 160208Z 12006KT 19/09 A2999 RMK A01 T01910092  RH  053%=      5-min Rain = 0
KCL1 160209Z 11008KT 19/08 A2998 RMK A01 T01930076  RH  047%=      5-min Rain = 0
KCL1 160210Z 09011KT 20/08 A2997 RMK A01 T02020076  RH  044%=      5-min Rain = 0
KCL1 160211Z 09007G13KT 21/08 A2997 RMK A01 T02050080  RH  044%=      5-min Rain = 0
KCL1 160212Z 22007KT 21/08 A2997 RMK A01 T02060081  RH  045%=      5-min Rain = 0
KCL1 160213Z 17016G21KT 21/08 A2997 RMK A01 T02060083  RH  045%=      5-min Rain = 0
KCL1 160214Z 14016KT 21/08 A2996 RMK A01 T02060081  RH  044%=      5-min Rain = 0
KCL1 160215Z 12015KT 21/08 A2995 RMK A01 T02060076  RH  043%=      5-min Rain = 0
KCL1 160216Z 13011KT 21/07 A2995 RMK A01 T02080071  RH  041%=      5-min Rain = 0
KCL1 160217Z 13011KT 21/07 A2994 RMK A01 T02110069  RH  040%=      5-min Rain = 0
KCL1 160218Z 13013KT 21/07 A2993 RMK A01 T02130072  RH  040%=      5-min Rain = 0
KCL1 160219Z 12012KT 21/08 A2993 RMK A01 T02140077  RH  041%=      5-min Rain = 0
KCL1 160220Z 12011KT 21/08 A2993 RMK A01 T02100081  RH  043%=      5-min Rain = 0
KCL1 160221Z 13011KT 21/08 A2993 RMK A01 T02070080  RH  044%=      5-min Rain = 0
KCL1 160222Z 11012G17KT 21/08 A2993 RMK A01 T02070078  RH  043%=      5-min Rain = 0
KCL1 160223Z 11014KT 21/08 A2993 RMK A01 T02070078  RH  043%=      5-min Rain = 0
KCL1 160224Z 11011KT 21/08 A2993 RMK A01 T02070077  RH  043%=      5-min Rain = 0
KCL1 160225Z 11010KT 21/08 A2993 RMK A01 T02070079  RH  044%=      5-min Rain = 0
KCL1 160226Z 11011KT 21/08 A2993 RMK A01 T02070076  RH  043%=      5-min Rain = 0
KCL1 160227Z 10008KT 21/07 A2993 RMK A01 T02090072  RH  041%=      5-min Rain = 0
KCL1 160228Z 08005KT 21/08 A2994 RMK A01 T02100076  RH  042%=      5-min Rain = 0
KCL1 160229Z 05004KT 21/08 A2994 RMK A01 T02100078  RH  043%=      5-min Rain = 0
KCL1 160230Z 04005KT 21/08 A2994 RMK A01 T02090078  RH  043%=      5-min Rain = 0
KCL1 160231Z 06005KT 21/08 A2994 RMK A01 T02080082  RH  044%=      5-min Rain = 0
KCL1 160232Z 06007KT 21/08 A2994 RMK A01 T02070080  RH  044%=      5-min Rain = 0
KCL1 160233Z 03006KT 21/08 A2995 RMK A01 T02070080  RH  044%=      5-min Rain = 0
KCL1 160234Z 04008KT 21/09 A2995 RMK A01 T02060085  RH  046%=      5-min Rain = 0
KCL1 160235Z 05009KT 20/08 A2995 RMK A01 T02040082  RH  045%=      5-min Rain = 0
KCL1 160236Z 06008KT 21/08 A2995 RMK A01 T02050080  RH  045%=      5-min Rain = 0
KCL1 160237Z 07006KT 21/08 A2995 RMK A01 T02060083  RH  045%=      5-min Rain = 0
KCL1 160238Z 10005KT 21/09 A2995 RMK A01 T02050085  RH  046%=      5-min Rain = 0
KCL1 160239Z 12006KT 20/09 A2995 RMK A01 T02040085  RH  046%=      5-min Rain = 0
KCL1 160240Z 15006KT 20/08 A2995 RMK A01 T02030084  RH  046%=      5-min Rain = 0
KCL1 160241Z 14005KT 20/08 A2995 RMK A01 T02030079  RH  045%=      5-min Rain = 0
KCL1 160242Z 14003KT 21/08 A2995 RMK A01 T02050075  RH  043%=      5-min Rain = 0
KCL1 160243Z 14002KT 21/08 A2995 RMK A01 T02070075  RH  042%=      5-min Rain = 0
KCL1 160244Z 19005KT 21/08 A2995 RMK A01 T02080080  RH  044%=      5-min Rain = 0
KCL1 160245Z 18003KT 21/08 A2995 RMK A01 T02080083  RH  045%=      5-min Rain = 0
KCL1 160246Z 13002KT 21/07 A2995 RMK A01 T02070074  RH  042%=      5-min Rain = 0
KCL1 160247Z 16002KT 21/07 A2995 RMK A01 T02080070  RH  041%=      5-min Rain = 0
KCL1 160248Z 17002KT 21/07 A2995 RMK A01 T02110071  RH  040%=      5-min Rain = 0
KCL1 160249Z 20002KT 21/07 A2995 RMK A01 T02120072  RH  041%=      5-min Rain = 0
KCL1 160250Z 21005KT 21/07 A2996 RMK A01 T02120073  RH  041%=      5-min Rain = 0
KCL1 160251Z 21006KT 21/08 A2996 RMK A01 T02130076  RH  041%=      5-min Rain = 0
KCL1 160252Z 19006KT 21/08 A2996 RMK A01 T02130076  RH  041%=      5-min Rain = 0
KCL1 160253Z 20007KT 21/08 A2996 RMK A01 T02130080  RH  042%=      5-min Rain = 0
KCL1 160254Z 21008KT 21/08 A2996 RMK A01 T02130080  RH  042%=      5-min Rain = 0
KCL1 160255Z 22010KT 21/08 A2996 RMK A01 T02130079  RH  042%=      5-min Rain = 0
KCL1 160256Z 21008KT 21/08 A2996 RMK A01 T02130081  RH  043%=      5-min Rain = 0
KCL1 160257Z 21009KT 21/08 A2996 RMK A01 T02120083  RH  043%=      5-min Rain = 0
KCL1 160258Z 21010KT 21/08 A2996 RMK A01 T02100082  RH  044%=      5-min Rain = 0
KCL1 160259Z 20010KT 21/08 A2996 RMK A01 T02090084  RH  044%=      5-min Rain = 0
KCL1 160300Z 21011KT 21/08 A2996 RMK A01 T02080084  RH  045%=      5-min Rain = 0
KCL1 160301Z 20008KT 21/09 A2996 RMK A01 T02070086  RH  046%=      5-min Rain = 0
KCL1 160302Z 20009KT 21/09 A2996 RMK A01 T02060086  RH  046%=      5-min Rain = 0
KCL1 160303Z 21008KT 21/09 A2996 RMK A01 T02050085  RH  046%=      5-min Rain = 0
KCL1 160304Z 22008KT 21/09 A2996 RMK A01 T02050085  RH  046%=      5-min Rain = 0
KCL1 160305Z 21008KT 20/09 A2996 RMK A01 T02040087  RH  047%=      5-min Rain = 0
KCL1 160306Z 21008KT 20/09 A2996 RMK A01 T02040087  RH  047%=      5-min Rain = 0
KCL1 160307Z 21008KT 20/09 A2996 RMK A01 T02030086  RH  047%=      5-min Rain = 0
KCL1 160308Z 21006KT 20/09 A2996 RMK A01 T02030087  RH  047%=      5-min Rain = 0
KCL1 160309Z 22005KT 20/09 A2996 RMK A01 T02020087  RH  047%=      5-min Rain = 0
KCL1 160310Z 20006KT 20/09 A2996 RMK A01 T02020089  RH  048%=      5-min Rain = 0
KCL1 160311Z 21007KT 20/09 A2996 RMK A01 T02010087  RH  048%=      5-min Rain = 0
KCL1 160312Z 20006KT 20/09 A2996 RMK A01 T02010085  RH  047%=      5-min Rain = 0
KCL1 160313Z 21005KT 20/09 A2996 RMK A01 T02010087  RH  048%=      5-min Rain = 0
KCL1 160314Z 21005KT 20/09 A2996 RMK A01 T02010088  RH  048%=      5-min Rain = 0
KCL1 160315Z 22006KT 20/09 A2996 RMK A01 T02000089  RH  049%=      5-min Rain = 0
KCL1 160316Z 21007KT 20/09 A2996 RMK A01 T02000089  RH  049%=      5-min Rain = 0
KCL1 160317Z 21008KT 20/09 A2996 RMK A01 T01990088  RH  048%=      5-min Rain = 0
KCL1 160318Z 21009KT 20/09 A2996 RMK A01 T01990087  RH  048%=      5-min Rain = 0
KCL1 160319Z 20010KT 20/09 A2996 RMK A01 T02000087  RH  048%=      5-min Rain = 0
KCL1 160320Z 20009KT 20/09 A2996 RMK A01 T02000086  RH  048%=      5-min Rain = 0
KCL1 160321Z 20010KT 20/09 A2996 RMK A01 T02000087  RH  048%=      5-min Rain = 0
KCL1 160322Z 20009KT 20/09 A2997 RMK A01 T02000088  RH  048%=      5-min Rain = 0
KCL1 160323Z 20010KT 20/09 A2997 RMK A01 T02000088  RH  048%=      5-min Rain = 0
KCL1 160324Z 20009KT 20/09 A2997 RMK A01 T02000087  RH  048%=      5-min Rain = 0
KCL1 160325Z 20008KT 20/09 A2997 RMK A01 T02000087  RH  048%=      5-min Rain = 0
KCL1 160326Z 19009KT 20/09 A2996 RMK A01 T02000087  RH  048%=      5-min Rain = 0
KCL1 160327Z 19008KT 20/09 A2997 RMK A01 T01990087  RH  048%=      5-min Rain = 0
KCL1 160328Z 19009KT 20/09 A2997 RMK A01 T01990087  RH  048%=      5-min Rain = 0
KCL1 160329Z 19012KT 20/09 A2997 RMK A01 T01990087  RH  048%=      5-min Rain = 0
KCL1 160330Z 19010KT 20/09 A2997 RMK A01 T01990086  RH  048%=      5-min Rain = 0
KCL1 160331Z 19011KT 20/09 A2997 RMK A01 T01990085  RH  048%=      5-min Rain = 0
KCL1 160332Z 18010KT 20/09 A2997 RMK A01 T01990087  RH  048%=      5-min Rain = 0
KCL1 160333Z 19008KT 20/09 A2997 RMK A01 T01990088  RH  049%=      5-min Rain = 0
KCL1 160334Z 19009KT 20/09 A2997 RMK A01 T01980088  RH  049%=      5-min Rain = 0
KCL1 160335Z 18009KT 20/09 A2997 RMK A01 T01970088  RH  049%=      5-min Rain = 0
KCL1 160336Z 18008KT 20/09 A2997 RMK A01 T01970088  RH  049%=      5-min Rain = 0
KCL1 160337Z 17010KT 20/09 A2997 RMK A01 T01970088  RH  049%=      5-min Rain = 0
KCL1 160338Z 17008KT 20/09 A2997 RMK A01 T01970089  RH  050%=      5-min Rain = 0
KCL1 160339Z 17008KT 20/09 A2997 RMK A01 T01960090  RH  050%=      5-min Rain = 0
KCL1 160340Z 18006KT 20/09 A2996 RMK A01 T01950090  RH  051%=      5-min Rain = 0
KCL1 160341Z 19005KT 19/09 A2996 RMK A01 T01940091  RH  051%=      5-min Rain = 0
KCL1 160342Z 19007KT 19/09 A2996 RMK A01 T01940090  RH  051%=      5-min Rain = 0
KCL1 160343Z 19005KT 19/09 A2996 RMK A01 T01940088  RH  050%=      5-min Rain = 0
KCL1 160344Z 19004KT 20/09 A2996 RMK A01 T01960088  RH  050%=      5-min Rain = 0
KCL1 160345Z 19003KT 20/09 A2996 RMK A01 T01960089  RH  050%=      5-min Rain = 0
KCL1 160346Z 19005KT 20/09 A2996 RMK A01 T01960088  RH  050%=      5-min Rain = 0
KCL1 160347Z 18005KT 20/09 A2996 RMK A01 T01960088  RH  050%=      5-min Rain = 0
KCL1 160348Z 18003KT 20/09 A2996 RMK A01 T01960086  RH  049%=      5-min Rain = 0
KCL1 160349Z 17003KT 20/09 A2995 RMK A01 T01960089  RH  050%=      5-min Rain = 0
KCL1 160350Z 15003KT 20/09 A2996 RMK A01 T01960088  RH  050%=      5-min Rain = 0
KCL1 160351Z 16003KT 20/09 A2996 RMK A01 T01950087  RH  050%=      5-min Rain = 0
KCL1 160352Z 17003KT 19/09 A2996 RMK A01 T01940087  RH  050%=      5-min Rain = 0
KCL1 160353Z 16003KT 19/09 A2996 RMK A01 T01940087  RH  050%=      5-min Rain = 0
KCL1 160354Z 16004KT 19/09 A2996 RMK A01 T01930087  RH  050%=      5-min Rain = 0
KCL1 160355Z 16005KT 19/09 A2996 RMK A01 T01920087  RH  051%=      5-min Rain = 0
KCL1 160356Z 15005KT 19/09 A2996 RMK A01 T01910089  RH  051%=      5-min Rain = 0
KCL1 160357Z 14005KT 19/09 A2996 RMK A01 T01900088  RH  051%=      5-min Rain = 0
KCL1 160358Z 13005KT 19/09 A2997 RMK A01 T01890088  RH  052%=      5-min Rain = 0
KCL1 160359Z 12005KT 19/09 A2997 RMK A01 T01880089  RH  053%=      5-min Rain = 0
KCL1 160400Z 11004KT 19/09 A2997 RMK A01 T01870090  RH  053%=      5-min Rain = 0
KCL1 160401Z 12003KT 19/09 A2997 RMK A01 T01860089  RH  053%=      5-min Rain = 0
KCL1 160402Z 11003KT 19/09 A2997 RMK A01 T01850090  RH  054%=      5-min Rain = 0
KCL1 160403Z 11003KT 19/09 A2998 RMK A01 T01850090  RH  054%=      5-min Rain = 0
KCL1 160404Z 13004KT 18/09 A2998 RMK A01 T01840092  RH  055%=      5-min Rain = 0
KCL1 160405Z 12004KT 18/09 A2998 RMK A01 T01830091  RH  055%=      5-min Rain = 0
KCL1 160406Z 12005KT 18/09 A2998 RMK A01 T01820091  RH  055%=      5-min Rain = 0
KCL1 160407Z 13005KT 18/09 A2998 RMK A01 T01820091  RH  055%=      5-min Rain = 0
KCL1 160408Z 12005KT 18/09 A2998 RMK A01 T01810091  RH  055%=      5-min Rain = 0
KCL1 160409Z 13004KT 18/09 A2999 RMK A01 T01810091  RH  055%=      5-min Rain = 0
KCL1 160410Z 12004KT 18/09 A2999 RMK A01 T01820092  RH  056%=      5-min Rain = 0
KCL1 160411Z 12004KT 18/09 A2999 RMK A01 T01820091  RH  056%=      5-min Rain = 0
KCL1 160412Z 12004KT 18/09 A2999 RMK A01 T01810092  RH  056%=      5-min Rain = 0
KCL1 160413Z 12005KT 18/09 A2999 RMK A01 T01810092  RH  056%=      5-min Rain = 0
KCL1 160414Z 12006KT 18/09 A2999 RMK A01 T01800093  RH  057%=      5-min Rain = 0
KCL1 160415Z 12006KT 18/09 A2999 RMK A01 T01780093  RH  057%=      5-min Rain = 0
KCL1 160416Z 12006KT 18/09 A2999 RMK A01 T01770094  RH  058%=      5-min Rain = 0
KCL1 160417Z 11005KT 18/09 A2999 RMK A01 T01760094  RH  059%=      5-min Rain = 0
KCL1 160418Z 10005KT 18/09 A30 RMK A01 T01750094  RH  059%=      5-min Rain = 0
KCL1 160419Z 08005KT 18/09 A30 RMK A01 T01750094  RH  059%=      5-min Rain = 0
KCL1 160420Z 07006KT 17/10 A30 RMK A01 T01740095  RH  060%=      5-min Rain = 0
KCL1 160421Z 06007KT 17/10 A30 RMK A01 T01730095  RH  060%=      5-min Rain = 0
KCL1 160422Z 06008KT 17/10 A3001 RMK A01 T01720096  RH  061%=      5-min Rain = 0
KCL1 160423Z 05009KT 17/10 A3001 RMK A01 T01710096  RH  061%=      5-min Rain = 0
KCL1 160424Z 05009KT 17/10 A3001 RMK A01 T01700098  RH  062%=      5-min Rain = 0
KCL1 160425Z 05008KT 17/10 A3001 RMK A01 T01690098  RH  063%=      5-min Rain = 0
KCL1 160426Z 06008KT 17/10 A3001 RMK A01 T01680099  RH  064%=      5-min Rain = 0
KCL1 160427Z 05008KT 17/10 A3001 RMK A01 T01680100  RH  064%=      5-min Rain = 0
KCL1 160428Z 04008KT 17/10 A3001 RMK A01 T01680100  RH  064%=      5-min Rain = 0
KCL1 160429Z 03011KT 17/10 A3002 RMK A01 T01670101  RH  065%=      5-min Rain = 0
KCL1 160430Z 02014KT 17/10 A3002 RMK A01 T01660104  RH  067%=      5-min Rain = 0
KCL1 160431Z 02015KT 16/11 A3002 RMK A01 T01630106  RH  069%=      5-min Rain = 0
KCL1 160432Z 01014KT 16/11 A3002 RMK A01 T01610106  RH  070%=      5-min Rain = 0
KCL1 160433Z 02013KT 16/11 A3002 RMK A01 T01600106  RH  070%=      5-min Rain = 0
KCL1 160434Z 02012KT 16/11 A3002 RMK A01 T01610105  RH  069%=      5-min Rain = 0
KCL1 160435Z 03010KT 16/10 A3002 RMK A01 T01640104  RH  068%=      5-min Rain = 0
KCL1 160436Z 02011KT 17/10 A3002 RMK A01 T01660104  RH  067%=      5-min Rain = 0
KCL1 160437Z 01012KT 17/10 A3001 RMK A01 T01660104  RH  067%=      5-min Rain = 0
KCL1 160438Z 01011KT 17/10 A3002 RMK A01 T01660104  RH  067%=      5-min Rain = 0
KCL1 160439Z 01012KT 17/10 A3002 RMK A01 T01650104  RH  067%=      5-min Rain = 0
KCL1 160440Z 01010KT 16/10 A3002 RMK A01 T01640104  RH  068%=      5-min Rain = 0
KCL1 160441Z 01009KT 16/10 A3002 RMK A01 T01630104  RH  068%=      5-min Rain = 0
KCL1 160442Z 01008KT 16/10 A3002 RMK A01 T01620104  RH  069%=      5-min Rain = 0
KCL1 160443Z 01007KT 16/10 A3002 RMK A01 T01620104  RH  068%=      5-min Rain = 0
KCL1 160444Z 01006KT 16/10 A3002 RMK A01 T01620103  RH  068%=      5-min Rain = 0
KCL1 160445Z 01004KT 16/10 A3002 RMK A01 T01620101  RH  067%=      5-min Rain = 0
KCL1 160446Z 00003KT 16/10 A3003 RMK A01 T01630101  RH  066%=      5-min Rain = 0
KCL1 160447Z 35003KT 17/10 A3003 RMK A01 T01650100  RH  066%=      5-min Rain = 0
KCL1 160448Z 35003KT 17/10 A3003 RMK A01 T01650100  RH  065%=      5-min Rain = 0
KCL1 160449Z 35003KT 17/10 A3003 RMK A01 T01660100  RH  065%=      5-min Rain = 0
KCL1 160450Z 35004KT 17/10 A3003 RMK A01 T01660100  RH  065%=      5-min Rain = 0
KCL1 160451Z 36004KT 17/10 A3003 RMK A01 T01660099  RH  065%=      5-min Rain = 0
KCL1 160452Z 00005KT 17/10 A3003 RMK A01 T01660100  RH  065%=      5-min Rain = 0
KCL1 160453Z 00005KT 17/10 A3003 RMK A01 T01660100  RH  065%=      5-min Rain = 0
KCL1 160454Z 00006KT 17/10 A3002 RMK A01 T01660099  RH  064%=      5-min Rain = 0
KCL1 160455Z 00006KT 17/10 A3002 RMK A01 T01670098  RH  064%=      5-min Rain = 0
KCL1 160456Z 01007KT 17/10 A3002 RMK A01 T01670098  RH  064%=      5-min Rain = 0
KCL1 160457Z 00006KT 17/10 A3002 RMK A01 T01670098  RH  063%=      5-min Rain = 0
KCL1 160458Z 36006KT 17/10 A3002 RMK A01 T01680097  RH  063%=      5-min Rain = 0
KCL1 160459Z 35006KT 17/10 A3002 RMK A01 T01680097  RH  063%=      5-min Rain = 0

Page generated in 0.0334 seconds.